Observation data for Aiken on 07/03/2020      Previous  Date  Next       Current Mesonet Observations  Soil Data  Daily Summary Page  Observations in Plain Language
KAI1 030500Z 06009KT 25/17 A3011 RMK A01 T02470170  RH  062%=      5-min Rain = 0
KAI1 030501Z 07008KT 25/17 A3011 RMK A01 T02470170  RH  062%=      5-min Rain = 0
KAI1 030502Z 07009KT 25/17 A3011 RMK A01 T02470170  RH  062%=      5-min Rain = 0
KAI1 030503Z 07008KT 25/17 A3011 RMK A01 T02470170  RH  062%=      5-min Rain = 0
KAI1 030504Z 07008KT 25/17 A3011 RMK A01 T02470170  RH  062%=      5-min Rain = 0
KAI1 030505Z 07008KT 25/17 A3011 RMK A01 T02470170  RH  062%=      5-min Rain = 0
KAI1 030506Z 07007KT 25/17 A3011 RMK A01 T02470170  RH  062%=      5-min Rain = 0
KAI1 030507Z 07007KT 25/17 A3011 RMK A01 T02470170  RH  062%=      5-min Rain = 0
KAI1 030508Z 07008KT 25/17 A3011 RMK A01 T02470170  RH  062%=      5-min Rain = 0
KAI1 030509Z 07008KT 25/17 A3011 RMK A01 T02470170  RH  062%=      5-min Rain = 0
KAI1 030510Z 06008KT 25/17 A3011 RMK A01 T02470170  RH  062%=      5-min Rain = 0
KAI1 030511Z 07008KT 25/17 A3011 RMK A01 T02470170  RH  062%=      5-min Rain = 0
KAI1 030512Z 07008KT 25/17 A3011 RMK A01 T02470169  RH  062%=      5-min Rain = 0
KAI1 030513Z 07007KT 25/17 A3011 RMK A01 T02470169  RH  062%=      5-min Rain = 0
KAI1 030514Z 06008KT 25/17 A3011 RMK A01 T02470169  RH  062%=      5-min Rain = 0
KAI1 030515Z 06008KT 25/17 A3011 RMK A01 T02470169  RH  062%=      5-min Rain = 0
KAI1 030516Z 06007KT 25/17 A3011 RMK A01 T02470169  RH  062%=      5-min Rain = 0
KAI1 030517Z 07007KT 25/17 A3011 RMK A01 T02470170  RH  062%=      5-min Rain = 0
KAI1 030518Z 07008KT 25/17 A3011 RMK A01 T02470170  RH  062%=      5-min Rain = 0
KAI1 030519Z 07008KT 25/17 A3011 RMK A01 T02470170  RH  062%=      5-min Rain = 0
KAI1 030520Z 07007KT 25/17 A3011 RMK A01 T02470169  RH  062%=      5-min Rain = 0
KAI1 030521Z 07008KT 25/17 A3011 RMK A01 T02470169  RH  062%=      5-min Rain = 0
KAI1 030522Z 07006KT 25/17 A3011 RMK A01 T02470169  RH  062%=      5-min Rain = 0
KAI1 030523Z 07007KT 25/17 A3011 RMK A01 T02470170  RH  062%=      5-min Rain = 0
KAI1 030524Z 07008KT 25/17 A3011 RMK A01 T02470170  RH  062%=      5-min Rain = 0
KAI1 030525Z 07007KT 25/17 A3011 RMK A01 T02460169  RH  062%=      5-min Rain = 0
KAI1 030526Z 07007KT 25/17 A3011 RMK A01 T02470169  RH  062%=      5-min Rain = 0
KAI1 030527Z 07008KT 25/17 A3011 RMK A01 T02470169  RH  062%=      5-min Rain = 0
KAI1 030528Z 07007KT 25/17 A3011 RMK A01 T02470170  RH  062%=      5-min Rain = 0
KAI1 030529Z 08006KT 25/17 A3011 RMK A01 T02460169  RH  062%=      5-min Rain = 0
KAI1 030530Z 08005KT 25/17 A3011 RMK A01 T02460170  RH  062%=      5-min Rain = 0
KAI1 030531Z 08006KT 25/17 A3011 RMK A01 T02460170  RH  062%=      5-min Rain = 0
KAI1 030532Z 08006KT 25/17 A3011 RMK A01 T02460170  RH  063%=      5-min Rain = 0
KAI1 030533Z 08006KT 25/17 A3011 RMK A01 T02450170  RH  063%=      5-min Rain = 0
KAI1 030534Z 08007KT 25/17 A3011 RMK A01 T02450169  RH  062%=      5-min Rain = 0
KAI1 030535Z 08007KT 25/17 A3011 RMK A01 T02450168  RH  062%=      5-min Rain = 0
KAI1 030536Z 08007KT 25/17 A3011 RMK A01 T02460168  RH  062%=      5-min Rain = 0
KAI1 030537Z 09007KT 25/17 A3011 RMK A01 T02460168  RH  062%=      5-min Rain = 0
KAI1 030538Z 09008KT 25/17 A3011 RMK A01 T02460168  RH  062%=      5-min Rain = 0
KAI1 030539Z 08008KT 25/17 A3011 RMK A01 T02470168  RH  062%=      5-min Rain = 0
KAI1 030540Z 09007KT 25/17 A3011 RMK A01 T02470168  RH  061%=      5-min Rain = 0
KAI1 030541Z 08007KT 25/17 A3011 RMK A01 T02470168  RH  061%=      5-min Rain = 0
KAI1 030542Z 08008KT 25/17 A3011 RMK A01 T02470168  RH  061%=      5-min Rain = 0
KAI1 030543Z 08008KT 25/17 A3011 RMK A01 T02470168  RH  061%=      5-min Rain = 0
KAI1 030544Z 08008KT 25/17 A3011 RMK A01 T02480168  RH  061%=      5-min Rain = 0
KAI1 030545Z 08007KT 25/17 A3011 RMK A01 T02480168  RH  061%=      5-min Rain = 0
KAI1 030546Z 08009KT 25/17 A3011 RMK A01 T02480168  RH  061%=      5-min Rain = 0
KAI1 030547Z 08007KT 25/17 A3011 RMK A01 T02490168  RH  061%=      5-min Rain = 0
KAI1 030548Z 08006KT 25/17 A3011 RMK A01 T02490169  RH  061%=      5-min Rain = 0
KAI1 030549Z 09007KT 25/17 A3011 RMK A01 T02480168  RH  061%=      5-min Rain = 0
KAI1 030550Z 08008KT 25/17 A3011 RMK A01 T02490169  RH  061%=      5-min Rain = 0
KAI1 030551Z 09006KT 25/17 A3011 RMK A01 T02480169  RH  061%=      5-min Rain = 0
KAI1 030552Z 09006KT 25/17 A301 RMK A01 T02480169  RH  061%=      5-min Rain = 0
KAI1 030553Z 09006KT 25/17 A301 RMK A01 T02480169  RH  061%=      5-min Rain = 0
KAI1 030554Z 09006KT 25/17 A301 RMK A01 T02480169  RH  061%=      5-min Rain = 0
KAI1 030555Z 09007KT 25/17 A301 RMK A01 T02480169  RH  062%=      5-min Rain = 0
KAI1 030556Z 09006KT 25/17 A301 RMK A01 T02480170  RH  062%=      5-min Rain = 0
KAI1 030557Z 09006KT 25/17 A301 RMK A01 T02480170  RH  062%=      5-min Rain = 0
KAI1 030558Z 09006KT 25/17 A301 RMK A01 T02480170  RH  062%=      5-min Rain = 0
KAI1 030559Z 09008KT 25/17 A301 RMK A01 T02480170  RH  062%=      5-min Rain = 0
KAI1 030600Z 09007KT 25/17 A301 RMK A01 T02480170  RH  062%=      5-min Rain = 0
KAI1 030601Z 09006KT 25/17 A301 RMK A01 T02480170  RH  062%=      5-min Rain = 0
KAI1 030602Z 09007KT 25/17 A301 RMK A01 T02480170  RH  062%=      5-min Rain = 0
KAI1 030603Z 09006KT 25/17 A301 RMK A01 T02480170  RH  062%=      5-min Rain = 0
KAI1 030604Z 09006KT 25/17 A301 RMK A01 T02480171  RH  062%=      5-min Rain = 0
KAI1 030605Z 10006KT 25/17 A301 RMK A01 T02480171  RH  062%=      5-min Rain = 0
KAI1 030606Z 09006KT 25/17 A301 RMK A01 T02480171  RH  062%=      5-min Rain = 0
KAI1 030607Z 09006KT 25/17 A301 RMK A01 T02480171  RH  063%=      5-min Rain = 0
KAI1 030608Z 10006KT 25/17 A301 RMK A01 T02480172  RH  063%=      5-min Rain = 0
KAI1 030609Z 10006KT 25/17 A301 RMK A01 T02480172  RH  063%=      5-min Rain = 0
KAI1 030610Z 10005KT 25/17 A301 RMK A01 T02470172  RH  063%=      5-min Rain = 0
KAI1 030611Z 10005KT 25/17 A301 RMK A01 T02470172  RH  063%=      5-min Rain = 0
KAI1 030612Z 10005KT 25/17 A301 RMK A01 T02470172  RH  063%=      5-min Rain = 0
KAI1 030613Z 10006KT 25/17 A301 RMK A01 T02460173  RH  063%=      5-min Rain = 0
KAI1 030614Z 10005KT 25/17 A301 RMK A01 T02460173  RH  064%=      5-min Rain = 0
KAI1 030615Z 09004KT 25/17 A301 RMK A01 T02460173  RH  064%=      5-min Rain = 0
KAI1 030616Z 10004KT 25/17 A301 RMK A01 T02460173  RH  064%=      5-min Rain = 0
KAI1 030617Z 10004KT 25/17 A301 RMK A01 T02450173  RH  064%=      5-min Rain = 0
KAI1 030618Z 10004KT 25/17 A301 RMK A01 T02450173  RH  064%=      5-min Rain = 0
KAI1 030619Z 11004KT 25/17 A301 RMK A01 T02450174  RH  065%=      5-min Rain = 0
KAI1 030620Z 11003KT 24/17 A301 RMK A01 T02440174  RH  065%=      5-min Rain = 0
KAI1 030621Z 11004KT 24/17 A301 RMK A01 T02440174  RH  065%=      5-min Rain = 0
KAI1 030622Z 10004KT 24/17 A301 RMK A01 T02440174  RH  065%=      5-min Rain = 0
KAI1 030623Z 10005KT 24/17 A301 RMK A01 T02440174  RH  065%=      5-min Rain = 0
KAI1 030624Z 10005KT 24/17 A301 RMK A01 T02430174  RH  065%=      5-min Rain = 0
KAI1 030625Z 10004KT 24/17 A301 RMK A01 T02430174  RH  066%=      5-min Rain = 0
KAI1 030626Z 10005KT 24/17 A301 RMK A01 T02420174  RH  066%=      5-min Rain = 0
KAI1 030627Z 10004KT 24/17 A301 RMK A01 T02420174  RH  066%=      5-min Rain = 0
KAI1 030628Z 10004KT 24/18 A301 RMK A01 T02410175  RH  066%=      5-min Rain = 0
KAI1 030629Z 10004KT 24/18 A301 RMK A01 T02410175  RH  067%=      5-min Rain = 0
KAI1 030630Z 10004KT 24/18 A301 RMK A01 T02400175  RH  067%=      5-min Rain = 0
KAI1 030631Z 10004KT 24/18 A3009 RMK A01 T02400175  RH  067%=      5-min Rain = 0
KAI1 030632Z 10005KT 24/18 A3009 RMK A01 T02390175  RH  067%=      5-min Rain = 0
KAI1 030633Z 11005KT 24/18 A3009 RMK A01 T02380175  RH  068%=      5-min Rain = 0
KAI1 030634Z 11005KT 24/18 A3009 RMK A01 T02380175  RH  068%=      5-min Rain = 0
KAI1 030635Z 11005KT 24/18 A3009 RMK A01 T02380175  RH  068%=      5-min Rain = 0
KAI1 030636Z 11004KT 24/18 A3009 RMK A01 T02380175  RH  068%=      5-min Rain = 0
KAI1 030637Z 12004KT 24/18 A3009 RMK A01 T02370175  RH  068%=      5-min Rain = 0
KAI1 030638Z 12004KT 24/18 A3009 RMK A01 T02370175  RH  068%=      5-min Rain = 0
KAI1 030639Z 13004KT 24/18 A3009 RMK A01 T02370175  RH  068%=      5-min Rain = 0
KAI1 030640Z 13004KT 24/18 A3009 RMK A01 T02370175  RH  068%=      5-min Rain = 0
KAI1 030641Z 14003KT 24/18 A3009 RMK A01 T02370175  RH  068%=      5-min Rain = 0
KAI1 030642Z 14003KT 24/18 A3009 RMK A01 T02360175  RH  068%=      5-min Rain = 0
KAI1 030643Z 14003KT 24/17 A3009 RMK A01 T02360174  RH  068%=      5-min Rain = 0
KAI1 030644Z 14003KT 24/17 A3009 RMK A01 T02360174  RH  068%=      5-min Rain = 0
KAI1 030645Z 14004KT 24/17 A3009 RMK A01 T02360174  RH  068%=      5-min Rain = 0
KAI1 030646Z 14004KT 24/17 A3009 RMK A01 T02360174  RH  068%=      5-min Rain = 0
KAI1 030647Z 14004KT 24/17 A3009 RMK A01 T02360174  RH  068%=      5-min Rain = 0
KAI1 030648Z 13004KT 24/17 A3009 RMK A01 T02360174  RH  068%=      5-min Rain = 0
KAI1 030649Z 13004KT 24/18 A3009 RMK A01 T02360175  RH  069%=      5-min Rain = 0
KAI1 030650Z 12004KT 24/18 A3009 RMK A01 T02350175  RH  069%=      5-min Rain = 0
KAI1 030651Z 12004KT 24/18 A3009 RMK A01 T02350175  RH  069%=      5-min Rain = 0
KAI1 030652Z 11005KT 23/18 A3009 RMK A01 T02340175  RH  070%=      5-min Rain = 0
KAI1 030653Z 11005KT 23/18 A3009 RMK A01 T02330175  RH  070%=      5-min Rain = 0
KAI1 030654Z 11005KT 23/18 A3009 RMK A01 T02330175  RH  070%=      5-min Rain = 0
KAI1 030655Z 11005KT 23/18 A3009 RMK A01 T02320175  RH  070%=      5-min Rain = 0
KAI1 030656Z 11005KT 23/18 A3009 RMK A01 T02310175  RH  070%=      5-min Rain = 0
KAI1 030657Z 11006KT 23/18 A3008 RMK A01 T02310175  RH  071%=      5-min Rain = 0
KAI1 030658Z 10006KT 23/18 A3008 RMK A01 T02300175  RH  071%=      5-min Rain = 0
KAI1 030659Z 10006KT 23/18 A3008 RMK A01 T02300175  RH  071%=      5-min Rain = 0
KAI1 030700Z 10006KT 23/18 A3008 RMK A01 T02290175  RH  071%=      5-min Rain = 0
KAI1 030701Z 10006KT 23/18 A3008 RMK A01 T02290175  RH  071%=      5-min Rain = 0
KAI1 030702Z 10006KT 23/17 A3008 RMK A01 T02290174  RH  071%=      5-min Rain = 0
KAI1 030703Z 11006KT 23/17 A3008 RMK A01 T02290174  RH  071%=      5-min Rain = 0
KAI1 030704Z 10006KT 23/17 A3008 RMK A01 T02290173  RH  071%=      5-min Rain = 0
KAI1 030705Z 10006KT 23/17 A3008 RMK A01 T02290173  RH  071%=      5-min Rain = 0
KAI1 030706Z 10006KT 23/17 A3008 RMK A01 T02290173  RH  071%=      5-min Rain = 0
KAI1 030707Z 10006KT 23/17 A3008 RMK A01 T02290173  RH  071%=      5-min Rain = 0
KAI1 030708Z 10006KT 23/17 A3008 RMK A01 T02290173  RH  071%=      5-min Rain = 0
KAI1 030709Z 09007KT 23/17 A3009 RMK A01 T02290174  RH  071%=      5-min Rain = 0
KAI1 030710Z 09006KT 23/17 A3009 RMK A01 T02290174  RH  071%=      5-min Rain = 0
KAI1 030711Z 09006KT 23/17 A3009 RMK A01 T02290174  RH  071%=      5-min Rain = 0
KAI1 030712Z 09006KT 23/17 A3009 RMK A01 T02290174  RH  071%=      5-min Rain = 0
KAI1 030713Z 10006KT 23/17 A3009 RMK A01 T02290174  RH  071%=      5-min Rain = 0
KAI1 030714Z 09006KT 23/18 A3009 RMK A01 T02290175  RH  071%=      5-min Rain = 0
KAI1 030715Z 08006KT 23/18 A3009 RMK A01 T02300175  RH  071%=      5-min Rain = 0
KAI1 030716Z 09005KT 23/18 A3009 RMK A01 T02300176  RH  071%=      5-min Rain = 0
KAI1 030717Z 09005KT 23/18 A3009 RMK A01 T02300176  RH  072%=      5-min Rain = 0
KAI1 030718Z 09006KT 23/18 A3009 RMK A01 T02300176  RH  072%=      5-min Rain = 0
KAI1 030719Z 09006KT 23/18 A3009 RMK A01 T02300175  RH  072%=      5-min Rain = 0
KAI1 030720Z 09005KT 23/18 A3009 RMK A01 T02310176  RH  071%=      5-min Rain = 0
KAI1 030721Z 09005KT 23/18 A3009 RMK A01 T02310176  RH  071%=      5-min Rain = 0
KAI1 030722Z 10004KT 23/18 A3009 RMK A01 T02320176  RH  071%=      5-min Rain = 0
KAI1 030723Z 10005KT 23/18 A3009 RMK A01 T02310176  RH  071%=      5-min Rain = 0
KAI1 030724Z 10005KT 23/18 A3009 RMK A01 T02310176  RH  071%=      5-min Rain = 0
KAI1 030725Z 10005KT 23/18 A3008 RMK A01 T02300176  RH  071%=      5-min Rain = 0
KAI1 030726Z 11004KT 23/18 A3008 RMK A01 T02300176  RH  072%=      5-min Rain = 0
KAI1 030727Z 11004KT 23/18 A3008 RMK A01 T02300176  RH  072%=      5-min Rain = 0
KAI1 030728Z 11004KT 23/18 A3008 RMK A01 T02290176  RH  072%=      5-min Rain = 0
KAI1 030729Z 11004KT 23/18 A3008 RMK A01 T02290176  RH  072%=      5-min Rain = 0
KAI1 030730Z 12004KT 23/18 A3008 RMK A01 T02290176  RH  072%=      5-min Rain = 0
KAI1 030731Z 12004KT 23/18 A3008 RMK A01 T02280176  RH  072%=      5-min Rain = 0
KAI1 030732Z 12004KT 23/18 A3008 RMK A01 T02280176  RH  072%=      5-min Rain = 0
KAI1 030733Z 13004KT 23/18 A3008 RMK A01 T02280175  RH  072%=      5-min Rain = 0
KAI1 030734Z 13004KT 23/18 A3008 RMK A01 T02280176  RH  072%=      5-min Rain = 0
KAI1 030735Z 13004KT 23/18 A3008 RMK A01 T02280176  RH  072%=      5-min Rain = 0
KAI1 030736Z 14003KT 23/18 A3008 RMK A01 T02280175  RH  072%=      5-min Rain = 0
KAI1 030737Z 14004KT 23/18 A3008 RMK A01 T02270176  RH  072%=      5-min Rain = 0
KAI1 030738Z 15004KT 23/18 A3008 RMK A01 T02270176  RH  073%=      5-min Rain = 0
KAI1 030739Z 14005KT 23/18 A3008 RMK A01 T02270175  RH  073%=      5-min Rain = 0
KAI1 030740Z 14005KT 23/17 A3008 RMK A01 T02270174  RH  072%=      5-min Rain = 0
KAI1 030741Z 15005KT 23/18 A3008 RMK A01 T02270175  RH  072%=      5-min Rain = 0
KAI1 030742Z 15005KT 23/18 A3008 RMK A01 T02270175  RH  072%=      5-min Rain = 0
KAI1 030743Z 15005KT 23/18 A3008 RMK A01 T02270175  RH  072%=      5-min Rain = 0
KAI1 030744Z 15005KT 23/18 A3007 RMK A01 T02260175  RH  073%=      5-min Rain = 0
KAI1 030745Z 14006KT 23/18 A3007 RMK A01 T02260175  RH  073%=      5-min Rain = 0
KAI1 030746Z 14006KT 23/18 A3007 RMK A01 T02260175  RH  073%=      5-min Rain = 0
KAI1 030747Z 14006KT 23/18 A3007 RMK A01 T02260176  RH  073%=      5-min Rain = 0
KAI1 030748Z 14007KT 23/18 A3007 RMK A01 T02260176  RH  073%=      5-min Rain = 0
KAI1 030749Z 14006KT 23/18 A3007 RMK A01 T02260176  RH  073%=      5-min Rain = 0
KAI1 030750Z 14007KT 23/18 A3007 RMK A01 T02260175  RH  073%=      5-min Rain = 0
KAI1 030751Z 14007KT 23/18 A3007 RMK A01 T02260175  RH  073%=      5-min Rain = 0
KAI1 030752Z 14006KT 23/17 A3007 RMK A01 T02260174  RH  073%=      5-min Rain = 0
KAI1 030753Z 14007KT 23/18 A3007 RMK A01 T02270175  RH  072%=      5-min Rain = 0
KAI1 030754Z 14006KT 23/17 A3007 RMK A01 T02270174  RH  072%=      5-min Rain = 0
KAI1 030755Z 14006KT 23/17 A3007 RMK A01 T02270174  RH  072%=      5-min Rain = 0
KAI1 030756Z 14006KT 23/17 A3008 RMK A01 T02270174  RH  072%=      5-min Rain = 0
KAI1 030757Z 14006KT 23/17 A3008 RMK A01 T02280174  RH  072%=      5-min Rain = 0
KAI1 030758Z 14006KT 23/17 A3008 RMK A01 T02270173  RH  071%=      5-min Rain = 0
KAI1 030759Z 14005KT 23/17 A3008 RMK A01 T02270173  RH  071%=      5-min Rain = 0
KAI1 030800Z 14005KT 23/17 A3008 RMK A01 T02270173  RH  071%=      5-min Rain = 0
KAI1 030801Z 14005KT 23/17 A3008 RMK A01 T02270173  RH  071%=      5-min Rain = 0
KAI1 030802Z 15005KT 23/17 A3008 RMK A01 T02270173  RH  071%=      5-min Rain = 0
KAI1 030803Z 14006KT 23/17 A3007 RMK A01 T02270173  RH  071%=      5-min Rain = 0
KAI1 030804Z 15006KT 23/17 A3007 RMK A01 T02270173  RH  071%=      5-min Rain = 0
KAI1 030805Z 15006KT 23/17 A3007 RMK A01 T02270173  RH  071%=      5-min Rain = 0
KAI1 030806Z 15006KT 23/17 A3007 RMK A01 T02270172  RH  071%=      5-min Rain = 0
KAI1 030807Z 16006KT 23/17 A3007 RMK A01 T02270172  RH  071%=      5-min Rain = 0
KAI1 030808Z 17006KT 23/17 A3007 RMK A01 T02280172  RH  071%=      5-min Rain = 0
KAI1 030809Z 17007KT 23/17 A3007 RMK A01 T02280171  RH  070%=      5-min Rain = 0
KAI1 030810Z 18006KT 23/17 A3007 RMK A01 T02290171  RH  070%=      5-min Rain = 0
KAI1 030811Z 17006KT 23/17 A3007 RMK A01 T02290172  RH  070%=      5-min Rain = 0
KAI1 030812Z 17006KT 23/17 A3007 RMK A01 T02280173  RH  071%=      5-min Rain = 0
KAI1 030813Z 17006KT 23/17 A3007 RMK A01 T02260173  RH  072%=      5-min Rain = 0
KAI1 030814Z 18006KT 23/17 A3006 RMK A01 T02260172  RH  072%=      5-min Rain = 0
KAI1 030815Z 17006KT 23/17 A3006 RMK A01 T02260172  RH  072%=      5-min Rain = 0
KAI1 030816Z 18006KT 23/17 A3006 RMK A01 T02260173  RH  072%=      5-min Rain = 0
KAI1 030817Z 18006KT 23/17 A3006 RMK A01 T02270173  RH  072%=      5-min Rain = 0
KAI1 030818Z 18006KT 23/17 A3006 RMK A01 T02280173  RH  071%=      5-min Rain = 0
KAI1 030819Z 18006KT 23/17 A3006 RMK A01 T02280173  RH  071%=      5-min Rain = 0
KAI1 030820Z 18006KT 23/17 A3006 RMK A01 T02280172  RH  071%=      5-min Rain = 0
KAI1 030821Z 18006KT 23/17 A3006 RMK A01 T02280172  RH  071%=      5-min Rain = 0
KAI1 030822Z 19007KT 23/17 A3006 RMK A01 T02270173  RH  071%=      5-min Rain = 0
KAI1 030823Z 19007KT 23/17 A3006 RMK A01 T02260172  RH  072%=      5-min Rain = 0
KAI1 030824Z 19007KT 23/17 A3006 RMK A01 T02250172  RH  072%=      5-min Rain = 0
KAI1 030825Z 19007KT 22/17 A3006 RMK A01 T02240172  RH  072%=      5-min Rain = 0
KAI1 030826Z 19007KT 22/17 A3006 RMK A01 T02230172  RH  073%=      5-min Rain = 0
KAI1 030827Z 19006KT 22/17 A3006 RMK A01 T02230172  RH  073%=      5-min Rain = 0
KAI1 030828Z 19006KT 22/17 A3006 RMK A01 T02230172  RH  073%=      5-min Rain = 0
KAI1 030829Z 19006KT 22/17 A3006 RMK A01 T02230172  RH  073%=      5-min Rain = 0
KAI1 030830Z 19005KT 22/17 A3006 RMK A01 T02240172  RH  072%=      5-min Rain = 0
KAI1 030831Z 19005KT 22/17 A3006 RMK A01 T02240171  RH  072%=      5-min Rain = 0
KAI1 030832Z 19005KT 22/17 A3006 RMK A01 T02240171  RH  072%=      5-min Rain = 0
KAI1 030833Z 19005KT 22/17 A3006 RMK A01 T02240171  RH  072%=      5-min Rain = 0
KAI1 030834Z 19005KT 22/17 A3006 RMK A01 T02240171  RH  072%=      5-min Rain = 0
KAI1 030835Z 19005KT 22/17 A3006 RMK A01 T02240171  RH  072%=      5-min Rain = 0
KAI1 030836Z 19005KT 22/17 A3006 RMK A01 T02240171  RH  072%=      5-min Rain = 0
KAI1 030837Z 19005KT 23/17 A3006 RMK A01 T02250171  RH  072%=      5-min Rain = 0
KAI1 030838Z 19005KT 23/17 A3006 RMK A01 T02250171  RH  072%=      5-min Rain = 0
KAI1 030839Z 19005KT 23/17 A3006 RMK A01 T02250171  RH  072%=      5-min Rain = 0
KAI1 030840Z 19005KT 23/17 A3006 RMK A01 T02250171  RH  071%=      5-min Rain = 0
KAI1 030841Z 19005KT 23/17 A3006 RMK A01 T02250171  RH  072%=      5-min Rain = 0
KAI1 030842Z 19005KT 23/17 A3006 RMK A01 T02250172  RH  072%=      5-min Rain = 0
KAI1 030843Z 19005KT 23/17 A3006 RMK A01 T02250172  RH  072%=      5-min Rain = 0
KAI1 030844Z 20005KT 22/17 A3006 RMK A01 T02240172  RH  072%=      5-min Rain = 0
KAI1 030845Z 20005KT 22/17 A3006 RMK A01 T02220172  RH  073%=      5-min Rain = 0
KAI1 030846Z 20005KT 22/17 A3006 RMK A01 T02210171  RH  074%=      5-min Rain = 0
KAI1 030847Z 20005KT 22/17 A3006 RMK A01 T02200172  RH  074%=      5-min Rain = 0
KAI1 030848Z 20005KT 22/17 A3006 RMK A01 T02190172  RH  075%=      5-min Rain = 0
KAI1 030849Z 21005KT 22/17 A3006 RMK A01 T02170172  RH  075%=      5-min Rain = 0
KAI1 030850Z 21005KT 22/17 A3006 RMK A01 T02160171  RH  076%=      5-min Rain = 0
KAI1 030851Z 21005KT 21/17 A3006 RMK A01 T02140171  RH  076%=      5-min Rain = 0
KAI1 030852Z 21004KT 21/17 A3006 RMK A01 T02130171  RH  077%=      5-min Rain = 0
KAI1 030853Z 21004KT 21/17 A3006 RMK A01 T02120170  RH  077%=      5-min Rain = 0
KAI1 030854Z 21004KT 21/17 A3006 RMK A01 T02110170  RH  077%=      5-min Rain = 0
KAI1 030855Z 21005KT 21/17 A3006 RMK A01 T02100170  RH  078%=      5-min Rain = 0
KAI1 030856Z 21005KT 21/17 A3006 RMK A01 T02100170  RH  078%=      5-min Rain = 0
KAI1 030857Z 21005KT 21/17 A3006 RMK A01 T02090169  RH  078%=      5-min Rain = 0
KAI1 030858Z 20005KT 21/17 A3006 RMK A01 T02090169  RH  078%=      5-min Rain = 0
KAI1 030859Z 20004KT 21/17 A3006 RMK A01 T02090169  RH  078%=      5-min Rain = 0
KAI1 030900Z 20005KT 21/17 A3006 RMK A01 T02090169  RH  078%=      5-min Rain = 0
KAI1 030901Z 20005KT 21/17 A3006 RMK A01 T02090169  RH  078%=      5-min Rain = 0
KAI1 030902Z 19005KT 21/17 A3006 RMK A01 T02100169  RH  077%=      5-min Rain = 0
KAI1 030903Z 19006KT 21/17 A3006 RMK A01 T02100169  RH  077%=      5-min Rain = 0
KAI1 030904Z 19006KT 21/17 A3006 RMK A01 T02120169  RH  077%=      5-min Rain = 0
KAI1 030905Z 18005KT 22/17 A3006 RMK A01 T02150170  RH  075%=      5-min Rain = 0
KAI1 030906Z 18005KT 22/17 A3006 RMK A01 T02190170  RH  074%=      5-min Rain = 0
KAI1 030907Z 19006KT 22/17 A3006 RMK A01 T02220170  RH  073%=      5-min Rain = 0
KAI1 030908Z 18005KT 22/17 A3006 RMK A01 T02240171  RH  072%=      5-min Rain = 0
KAI1 030909Z 18005KT 23/17 A3006 RMK A01 T02250171  RH  071%=      5-min Rain = 0
KAI1 030910Z 18005KT 23/17 A3006 RMK A01 T02250171  RH  071%=      5-min Rain = 0
KAI1 030911Z 18005KT 23/17 A3006 RMK A01 T02260171  RH  071%=      5-min Rain = 0
KAI1 030912Z 18005KT 23/17 A3006 RMK A01 T02260172  RH  071%=      5-min Rain = 0
KAI1 030913Z 17005KT 23/17 A3006 RMK A01 T02250172  RH  072%=      5-min Rain = 0
KAI1 030914Z 17005KT 23/17 A3006 RMK A01 T02250173  RH  072%=      5-min Rain = 0
KAI1 030915Z 18005KT 22/17 A3006 RMK A01 T02240173  RH  073%=      5-min Rain = 0
KAI1 030916Z 18005KT 22/17 A3006 RMK A01 T02240173  RH  073%=      5-min Rain = 0
KAI1 030917Z 18005KT 22/17 A3006 RMK A01 T02230173  RH  073%=      5-min Rain = 0
KAI1 030918Z 18005KT 22/17 A3006 RMK A01 T02230173  RH  073%=      5-min Rain = 0
KAI1 030919Z 18005KT 22/17 A3006 RMK A01 T02230173  RH  073%=      5-min Rain = 0
KAI1 030920Z 18005KT 22/17 A3006 RMK A01 T02230173  RH  074%=      5-min Rain = 0
KAI1 030921Z 18005KT 22/17 A3006 RMK A01 T02230174  RH  074%=      5-min Rain = 0
KAI1 030922Z 18006KT 22/17 A3006 RMK A01 T02220174  RH  074%=      5-min Rain = 0
KAI1 030923Z 17006KT 22/17 A3006 RMK A01 T02220174  RH  074%=      5-min Rain = 0
KAI1 030924Z 17007KT 22/17 A3006 RMK A01 T02220174  RH  074%=      5-min Rain = 0
KAI1 030925Z 17007KT 22/18 A3006 RMK A01 T02220175  RH  074%=      5-min Rain = 0
KAI1 030926Z 17007KT 22/17 A3006 RMK A01 T02220174  RH  074%=      5-min Rain = 0
KAI1 030927Z 16007KT 22/17 A3006 RMK A01 T02220174  RH  074%=      5-min Rain = 0
KAI1 030928Z 16007KT 22/18 A3006 RMK A01 T02220175  RH  075%=      5-min Rain = 0
KAI1 030929Z 16007KT 22/18 A3006 RMK A01 T02210175  RH  075%=      5-min Rain = 0
KAI1 030930Z 16007KT 22/18 A3006 RMK A01 T02210175  RH  075%=      5-min Rain = 0
KAI1 030931Z 16007KT 22/17 A3006 RMK A01 T02200174  RH  075%=      5-min Rain = 0
KAI1 030932Z 17007KT 22/17 A3006 RMK A01 T02200173  RH  075%=      5-min Rain = 0
KAI1 030933Z 17006KT 22/17 A3006 RMK A01 T02200172  RH  074%=      5-min Rain = 0
KAI1 030934Z 17007KT 22/17 A3006 RMK A01 T02210172  RH  074%=      5-min Rain = 0
KAI1 030935Z 16006KT 22/17 A3006 RMK A01 T02210171  RH  073%=      5-min Rain = 0
KAI1 030936Z 16006KT 22/17 A3006 RMK A01 T02210171  RH  073%=      5-min Rain = 0
KAI1 030937Z 16006KT 22/17 A3006 RMK A01 T02210171  RH  073%=      5-min Rain = 0
KAI1 030938Z 16006KT 22/17 A3006 RMK A01 T02210172  RH  074%=      5-min Rain = 0
KAI1 030939Z 16006KT 22/17 A3006 RMK A01 T02210172  RH  074%=      5-min Rain = 0
KAI1 030940Z 16006KT 22/17 A3006 RMK A01 T02210172  RH  074%=      5-min Rain = 0
KAI1 030941Z 16006KT 22/17 A3006 RMK A01 T02210173  RH  074%=      5-min Rain = 0
KAI1 030942Z 16006KT 22/17 A3006 RMK A01 T02200173  RH  074%=      5-min Rain = 0
KAI1 030943Z 16006KT 22/17 A3006 RMK A01 T02200173  RH  074%=      5-min Rain = 0
KAI1 030944Z 16006KT 22/17 A3006 RMK A01 T02200172  RH  074%=      5-min Rain = 0
KAI1 030945Z 16006KT 22/17 A3006 RMK A01 T02200172  RH  074%=      5-min Rain = 0
KAI1 030946Z 16006KT 22/17 A3006 RMK A01 T02190172  RH  074%=      5-min Rain = 0
KAI1 030947Z 16007KT 22/17 A3006 RMK A01 T02200172  RH  074%=      5-min Rain = 0
KAI1 030948Z 16007KT 22/17 A3006 RMK A01 T02200172  RH  074%=      5-min Rain = 0
KAI1 030949Z 16007KT 22/17 A3006 RMK A01 T02200172  RH  074%=      5-min Rain = 0
KAI1 030950Z 17007KT 22/17 A3006 RMK A01 T02200172  RH  074%=      5-min Rain = 0
KAI1 030951Z 16007KT 22/17 A3006 RMK A01 T02200172  RH  074%=      5-min Rain = 0
KAI1 030952Z 17007KT 22/17 A3007 RMK A01 T02200172  RH  074%=      5-min Rain = 0
KAI1 030953Z 16007KT 22/17 A3007 RMK A01 T02190172  RH  074%=      5-min Rain = 0
KAI1 030954Z 17007KT 22/17 A3007 RMK A01 T02190171  RH  074%=      5-min Rain = 0
KAI1 030955Z 16007KT 22/17 A3007 RMK A01 T02200171  RH  074%=      5-min Rain = 0
KAI1 030956Z 17007KT 22/17 A3007 RMK A01 T02200171  RH  074%=      5-min Rain = 0
KAI1 030957Z 17007KT 22/17 A3007 RMK A01 T02190171  RH  074%=      5-min Rain = 0
KAI1 030958Z 16007KT 22/17 A3007 RMK A01 T02200171  RH  074%=      5-min Rain = 0
KAI1 030959Z 16007KT 22/17 A3007 RMK A01 T02200171  RH  074%=      5-min Rain = 0
KAI1 031000Z 16007KT 22/17 A3007 RMK A01 T02190171  RH  074%=      5-min Rain = 0
KAI1 031001Z 16007KT 22/17 A3007 RMK A01 T02200172  RH  074%=      5-min Rain = 0
KAI1 031002Z 15007KT 22/17 A3007 RMK A01 T02200173  RH  075%=      5-min Rain = 0
KAI1 031003Z 15007KT 22/17 A3007 RMK A01 T02190172  RH  075%=      5-min Rain = 0
KAI1 031004Z 15007KT 22/17 A3007 RMK A01 T02190172  RH  075%=      5-min Rain = 0
KAI1 031005Z 15007KT 22/17 A3007 RMK A01 T02180171  RH  075%=      5-min Rain = 0
KAI1 031006Z 15007KT 22/17 A3007 RMK A01 T02180172  RH  075%=      5-min Rain = 0
KAI1 031007Z 14007KT 22/17 A3007 RMK A01 T02180171  RH  075%=      5-min Rain = 0
KAI1 031008Z 14007KT 22/17 A3007 RMK A01 T02170171  RH  075%=      5-min Rain = 0
KAI1 031009Z 14007KT 22/17 A3007 RMK A01 T02170170  RH  075%=      5-min Rain = 0
KAI1 031010Z 14006KT 22/17 A3007 RMK A01 T02170170  RH  075%=      5-min Rain = 0
KAI1 031011Z 14006KT 22/17 A3007 RMK A01 T02170170  RH  075%=      5-min Rain = 0
KAI1 031012Z 14006KT 22/17 A3007 RMK A01 T02170170  RH  075%=      5-min Rain = 0
KAI1 031013Z 14007KT 22/17 A3007 RMK A01 T02160170  RH  075%=      5-min Rain = 0
KAI1 031014Z 14007KT 22/17 A3007 RMK A01 T02160170  RH  075%=      5-min Rain = 0
KAI1 031015Z 14007KT 22/17 A3007 RMK A01 T02160170  RH  075%=      5-min Rain = 0
KAI1 031016Z 14007KT 22/17 A3007 RMK A01 T02160170  RH  075%=      5-min Rain = 0
KAI1 031017Z 15007KT 22/17 A3007 RMK A01 T02160170  RH  075%=      5-min Rain = 0
KAI1 031018Z 15007KT 22/17 A3007 RMK A01 T02160170  RH  075%=      5-min Rain = 0
KAI1 031019Z 15007KT 22/17 A3007 RMK A01 T02160170  RH  075%=      5-min Rain = 0
KAI1 031020Z 15008KT 22/17 A3007 RMK A01 T02160170  RH  075%=      5-min Rain = 0
KAI1 031021Z 15007KT 22/17 A3007 RMK A01 T02160170  RH  075%=      5-min Rain = 0
KAI1 031022Z 15007KT 22/17 A3007 RMK A01 T02160170  RH  075%=      5-min Rain = 0
KAI1 031023Z 16007KT 22/17 A3007 RMK A01 T02160169  RH  075%=      5-min Rain = 0
KAI1 031024Z 16007KT 22/17 A3007 RMK A01 T02160169  RH  075%=      5-min Rain = 0
KAI1 031025Z 16008KT 22/17 A3007 RMK A01 T02170170  RH  075%=      5-min Rain = 0
KAI1 031026Z 16007KT 22/17 A3007 RMK A01 T02170170  RH  075%=      5-min Rain = 0
KAI1 031027Z 15008KT 22/17 A3007 RMK A01 T02180171  RH  075%=      5-min Rain = 0
KAI1 031028Z 16007KT 22/17 A3007 RMK A01 T02180171  RH  075%=      5-min Rain = 0
KAI1 031029Z 16007KT 22/17 A3007 RMK A01 T02180171  RH  074%=      5-min Rain = 0
KAI1 031030Z 16007KT 22/17 A3007 RMK A01 T02190171  RH  074%=      5-min Rain = 0
KAI1 031031Z 16007KT 22/17 A3008 RMK A01 T02190171  RH  074%=      5-min Rain = 0
KAI1 031032Z 16008KT 22/17 A3008 RMK A01 T02200171  RH  074%=      5-min Rain = 0
KAI1 031033Z 16007KT 22/17 A3008 RMK A01 T02200171  RH  074%=      5-min Rain = 0
KAI1 031034Z 16007KT 22/17 A3008 RMK A01 T02210172  RH  074%=      5-min Rain = 0
KAI1 031035Z 16007KT 22/17 A3008 RMK A01 T02210172  RH  074%=      5-min Rain = 0
KAI1 031036Z 16007KT 22/17 A3008 RMK A01 T02210171  RH  074%=      5-min Rain = 0
KAI1 031037Z 16008KT 22/17 A3008 RMK A01 T02200171  RH  073%=      5-min Rain = 0
KAI1 031038Z 16008KT 22/17 A3008 RMK A01 T02210171  RH  073%=      5-min Rain = 0
KAI1 031039Z 16008KT 22/17 A3008 RMK A01 T02200171  RH  073%=      5-min Rain = 0
KAI1 031040Z 16008KT 22/17 A3008 RMK A01 T02210171  RH  073%=      5-min Rain = 0
KAI1 031041Z 16008KT 22/17 A3008 RMK A01 T02210172  RH  074%=      5-min Rain = 0
KAI1 031042Z 16008KT 22/17 A3008 RMK A01 T02220172  RH  074%=      5-min Rain = 0
KAI1 031043Z 16007KT 22/17 A3008 RMK A01 T02210172  RH  074%=      5-min Rain = 0
KAI1 031044Z 16008KT 22/17 A3008 RMK A01 T02210173  RH  074%=      5-min Rain = 0
KAI1 031045Z 16008KT 22/17 A3008 RMK A01 T02210173  RH  074%=      5-min Rain = 0
KAI1 031046Z 16008KT 22/17 A3008 RMK A01 T02220173  RH  074%=      5-min Rain = 0
KAI1 031047Z 17008KT 22/17 A3008 RMK A01 T02210173  RH  074%=      5-min Rain = 0
KAI1 031048Z 16008KT 22/17 A3008 RMK A01 T02210173  RH  074%=      5-min Rain = 0
KAI1 031049Z 17008KT 22/17 A3008 RMK A01 T02210173  RH  074%=      5-min Rain = 0
KAI1 031050Z 17008KT 22/17 A3008 RMK A01 T02210174  RH  074%=      5-min Rain = 0
KAI1 031051Z 17008KT 22/17 A3008 RMK A01 T02210174  RH  075%=      5-min Rain = 0
KAI1 031052Z 16008KT 22/17 A3008 RMK A01 T02210174  RH  075%=      5-min Rain = 0
KAI1 031053Z 17008KT 22/17 A3008 RMK A01 T02210174  RH  075%=      5-min Rain = 0
KAI1 031054Z 17007KT 22/17 A3008 RMK A01 T02210174  RH  075%=      5-min Rain = 0
KAI1 031055Z 17008KT 22/17 A3008 RMK A01 T02210174  RH  075%=      5-min Rain = 0
KAI1 031056Z 17008KT 22/18 A3008 RMK A01 T02210175  RH  075%=      5-min Rain = 0
KAI1 031057Z 17008KT 22/18 A3008 RMK A01 T02200175  RH  075%=      5-min Rain = 0
KAI1 031058Z 16007KT 22/18 A3008 RMK A01 T02210175  RH  075%=      5-min Rain = 0
KAI1 031059Z 16007KT 22/18 A3008 RMK A01 T02200175  RH  075%=      5-min Rain = 0
KAI1 031100Z 16007KT 22/18 A3008 RMK A01 T02210175  RH  075%=      5-min Rain = 0
KAI1 031101Z 16008KT 22/18 A3008 RMK A01 T02210175  RH  075%=      5-min Rain = 0
KAI1 031102Z 17008KT 22/18 A3008 RMK A01 T02200175  RH  075%=      5-min Rain = 0
KAI1 031103Z 16007KT 22/18 A3008 RMK A01 T02200175  RH  075%=      5-min Rain = 0
KAI1 031104Z 17007KT 22/18 A3008 RMK A01 T02200175  RH  076%=      5-min Rain = 0
KAI1 031105Z 17007KT 22/18 A3008 RMK A01 T02200175  RH  076%=      5-min Rain = 0
KAI1 031106Z 17008KT 22/18 A3008 RMK A01 T02200175  RH  076%=      5-min Rain = 0
KAI1 031107Z 17007KT 22/18 A3008 RMK A01 T02200175  RH  076%=      5-min Rain = 0
KAI1 031108Z 16008KT 22/18 A3008 RMK A01 T02190175  RH  076%=      5-min Rain = 0
KAI1 031109Z 16008KT 22/18 A3008 RMK A01 T02190175  RH  076%=      5-min Rain = 0
KAI1 031110Z 16008KT 22/18 A3008 RMK A01 T02200176  RH  076%=      5-min Rain = 0
KAI1 031111Z 16008KT 22/18 A3008 RMK A01 T02190176  RH  076%=      5-min Rain = 0
KAI1 031112Z 16008KT 22/18 A3008 RMK A01 T02190175  RH  076%=      5-min Rain = 0
KAI1 031113Z 16008KT 22/18 A3008 RMK A01 T02190175  RH  076%=      5-min Rain = 0
KAI1 031114Z 16007KT 22/18 A3008 RMK A01 T02190175  RH  076%=      5-min Rain = 0
KAI1 031115Z 16007KT 22/18 A3008 RMK A01 T02190175  RH  076%=      5-min Rain = 0
KAI1 031116Z 16007KT 22/18 A3008 RMK A01 T02190175  RH  076%=      5-min Rain = 0
KAI1 031117Z 16007KT 22/18 A3008 RMK A01 T02190175  RH  076%=      5-min Rain = 0
KAI1 031118Z 16007KT 22/18 A3008 RMK A01 T02190175  RH  076%=      5-min Rain = 0
KAI1 031119Z 16007KT 22/18 A3008 RMK A01 T02190175  RH  076%=      5-min Rain = 0
KAI1 031120Z 16007KT 22/18 A3008 RMK A01 T02190175  RH  076%=      5-min Rain = 0
KAI1 031121Z 16006KT 22/18 A3008 RMK A01 T02180175  RH  076%=      5-min Rain = 0
KAI1 031122Z 16007KT 22/18 A3008 RMK A01 T02180175  RH  076%=      5-min Rain = 0
KAI1 031123Z 16007KT 22/18 A3008 RMK A01 T02180175  RH  076%=      5-min Rain = 0
KAI1 031124Z 16007KT 22/18 A3008 RMK A01 T02180175  RH  076%=      5-min Rain = 0
KAI1 031125Z 16007KT 22/17 A3008 RMK A01 T02170174  RH  077%=      5-min Rain = 0
KAI1 031126Z 16007KT 22/17 A3009 RMK A01 T02170174  RH  077%=      5-min Rain = 0
KAI1 031127Z 16007KT 22/18 A3009 RMK A01 T02170175  RH  077%=      5-min Rain = 0
KAI1 031128Z 16007KT 22/17 A3009 RMK A01 T02160174  RH  077%=      5-min Rain = 0
KAI1 031129Z 16007KT 22/17 A3009 RMK A01 T02160174  RH  077%=      5-min Rain = 0
KAI1 031130Z 16007KT 22/18 A3009 RMK A01 T02160175  RH  077%=      5-min Rain = 0
KAI1 031131Z 16007KT 22/18 A3009 RMK A01 T02160175  RH  077%=      5-min Rain = 0
KAI1 031132Z 16007KT 22/17 A3009 RMK A01 T02150174  RH  077%=      5-min Rain = 0
KAI1 031133Z 16007KT 22/17 A3009 RMK A01 T02150174  RH  078%=      5-min Rain = 0
KAI1 031134Z 16007KT 22/17 A3009 RMK A01 T02150174  RH  078%=      5-min Rain = 0
KAI1 031135Z 16007KT 22/18 A3009 RMK A01 T02150175  RH  078%=      5-min Rain = 0
KAI1 031136Z 16007KT 22/17 A3009 RMK A01 T02150174  RH  078%=      5-min Rain = 0
KAI1 031137Z 16007KT 21/17 A3009 RMK A01 T02140174  RH  078%=      5-min Rain = 0
KAI1 031138Z 16007KT 21/17 A3009 RMK A01 T02140174  RH  078%=      5-min Rain = 0
KAI1 031139Z 16007KT 21/18 A3009 RMK A01 T02140175  RH  078%=      5-min Rain = 0
KAI1 031140Z 16007KT 21/17 A3009 RMK A01 T02140174  RH  078%=      5-min Rain = 0
KAI1 031141Z 16007KT 21/17 A3009 RMK A01 T02140174  RH  078%=      5-min Rain = 0
KAI1 031142Z 16007KT 21/17 A3009 RMK A01 T02140174  RH  078%=      5-min Rain = 0
KAI1 031143Z 16007KT 21/18 A3009 RMK A01 T02140175  RH  078%=      5-min Rain = 0
KAI1 031144Z 16007KT 21/18 A3009 RMK A01 T02140175  RH  078%=      5-min Rain = 0
KAI1 031145Z 15007KT 21/18 A3009 RMK A01 T02130175  RH  079%=      5-min Rain = 0
KAI1 031146Z 15007KT 21/18 A3009 RMK A01 T02130175  RH  079%=      5-min Rain = 0
KAI1 031147Z 16007KT 21/18 A3009 RMK A01 T02130175  RH  079%=      5-min Rain = 0
KAI1 031148Z 16007KT 21/18 A3009 RMK A01 T02130175  RH  079%=      5-min Rain = 0
KAI1 031149Z 16006KT 21/17 A3009 RMK A01 T02120174  RH  079%=      5-min Rain = 0
KAI1 031150Z 16007KT 21/18 A3009 RMK A01 T02120175  RH  079%=      5-min Rain = 0
KAI1 031151Z 16007KT 21/18 A3009 RMK A01 T02120175  RH  079%=      5-min Rain = 0
KAI1 031152Z 16007KT 21/18 A3009 RMK A01 T02120175  RH  079%=      5-min Rain = 0
KAI1 031153Z 16007KT 21/18 A3009 RMK A01 T02120175  RH  079%=      5-min Rain = 0
KAI1 031154Z 16007KT 21/18 A3009 RMK A01 T02120175  RH  079%=      5-min Rain = 0
KAI1 031155Z 16006KT 21/18 A3009 RMK A01 T02120175  RH  079%=      5-min Rain = 0
KAI1 031156Z 16006KT 21/18 A3009 RMK A01 T02120175  RH  079%=      5-min Rain = 0
KAI1 031157Z 16006KT 21/18 A3009 RMK A01 T02120175  RH  079%=      5-min Rain = 0
KAI1 031158Z 16006KT 21/18 A3009 RMK A01 T02120175  RH  079%=      5-min Rain = 0
KAI1 031159Z 16006KT 21/18 A3009 RMK A01 T02120175  RH  079%=      5-min Rain = 0
KAI1 031200Z 16006KT 21/18 A3009 RMK A01 T02120175  RH  079%=      5-min Rain = 0
KAI1 031201Z 16006KT 21/18 A3009 RMK A01 T02120175  RH  079%=      5-min Rain = 0
KAI1 031202Z 16006KT 21/18 A3009 RMK A01 T02120175  RH  079%=      5-min Rain = 0
KAI1 031203Z 16006KT 21/17 A3009 RMK A01 T02120174  RH  079%=      5-min Rain = 0
KAI1 031204Z 16006KT 21/17 A3009 RMK A01 T02120174  RH  079%=      5-min Rain = 0
KAI1 031205Z 16006KT 21/17 A3009 RMK A01 T02120174  RH  079%=      5-min Rain = 0
KAI1 031206Z 16006KT 21/17 A3009 RMK A01 T02120174  RH  079%=      5-min Rain = 0
KAI1 031207Z 16006KT 21/18 A3009 RMK A01 T02120175  RH  079%=      5-min Rain = 0
KAI1 031208Z 16006KT 21/18 A3009 RMK A01 T02120175  RH  079%=      5-min Rain = 0
KAI1 031209Z 16006KT 21/18 A3009 RMK A01 T02130175  RH  079%=      5-min Rain = 0
KAI1 031210Z 16006KT 21/17 A3009 RMK A01 T02120174  RH  079%=      5-min Rain = 0
KAI1 031211Z 15006KT 21/17 A3009 RMK A01 T02120174  RH  079%=      5-min Rain = 0
KAI1 031212Z 16007KT 21/17 A3009 RMK A01 T02120174  RH  079%=      5-min Rain = 0
KAI1 031213Z 16007KT 21/17 A3009 RMK A01 T02120174  RH  079%=      5-min Rain = 0
KAI1 031214Z 15007KT 21/17 A3009 RMK A01 T02130174  RH  079%=      5-min Rain = 0
KAI1 031215Z 15007KT 21/17 A3009 RMK A01 T02130174  RH  078%=      5-min Rain = 0
KAI1 031216Z 15007KT 21/17 A3009 RMK A01 T02130174  RH  078%=      5-min Rain = 0
KAI1 031217Z 15007KT 21/17 A3009 RMK A01 T02130174  RH  078%=      5-min Rain = 0
KAI1 031218Z 14007KT 21/17 A3009 RMK A01 T02140174  RH  078%=      5-min Rain = 0
KAI1 031219Z 14007KT 21/17 A3009 RMK A01 T02140174  RH  078%=      5-min Rain = 0
KAI1 031220Z 14007KT 22/18 A3009 RMK A01 T02150175  RH  078%=      5-min Rain = 0
KAI1 031221Z 14007KT 22/17 A3009 RMK A01 T02150174  RH  077%=      5-min Rain = 0
KAI1 031222Z 15007KT 22/17 A3009 RMK A01 T02160174  RH  077%=      5-min Rain = 0
KAI1 031223Z 15007KT 22/17 A3009 RMK A01 T02170174  RH  077%=      5-min Rain = 0
KAI1 031224Z 15007KT 22/17 A3009 RMK A01 T02170174  RH  076%=      5-min Rain = 0
KAI1 031225Z 15007KT 22/17 A3009 RMK A01 T02180174  RH  076%=      5-min Rain = 0
KAI1 031226Z 15007KT 22/17 A3009 RMK A01 T02190174  RH  076%=      5-min Rain = 0
KAI1 031227Z 16006KT 22/17 A3009 RMK A01 T02190174  RH  075%=      5-min Rain = 0
KAI1 031228Z 16006KT 22/18 A3009 RMK A01 T02200175  RH  075%=      5-min Rain = 0
KAI1 031229Z 16006KT 22/18 A301 RMK A01 T02210175  RH  075%=      5-min Rain = 0
KAI1 031230Z 16007KT 22/18 A301 RMK A01 T02220175  RH  075%=      5-min Rain = 0
KAI1 031231Z 16007KT 22/18 A301 RMK A01 T02220175  RH  075%=      5-min Rain = 0
KAI1 031232Z 15007KT 22/18 A301 RMK A01 T02230176  RH  074%=      5-min Rain = 0
KAI1 031233Z 16007KT 22/18 A301 RMK A01 T02240176  RH  074%=      5-min Rain = 0
KAI1 031234Z 16007KT 22/18 A301 RMK A01 T02240176  RH  074%=      5-min Rain = 0
KAI1 031235Z 16007KT 22/18 A301 RMK A01 T02240176  RH  074%=      5-min Rain = 0
KAI1 031236Z 15007KT 23/18 A301 RMK A01 T02250176  RH  074%=      5-min Rain = 0
KAI1 031237Z 15007KT 23/18 A301 RMK A01 T02250176  RH  074%=      5-min Rain = 0
KAI1 031238Z 16007KT 23/18 A301 RMK A01 T02260177  RH  074%=      5-min Rain = 0
KAI1 031239Z 15007KT 23/18 A301 RMK A01 T02270177  RH  073%=      5-min Rain = 0
KAI1 031240Z 15007KT 23/18 A301 RMK A01 T02270176  RH  073%=      5-min Rain = 0
KAI1 031241Z 15007KT 23/18 A301 RMK A01 T02280177  RH  073%=      5-min Rain = 0
KAI1 031242Z 15007KT 23/18 A301 RMK A01 T02280177  RH  073%=      5-min Rain = 0
KAI1 031243Z 15007KT 23/18 A301 RMK A01 T02290177  RH  072%=      5-min Rain = 0
KAI1 031244Z 15007KT 23/18 A301 RMK A01 T02300177  RH  072%=      5-min Rain = 0
KAI1 031245Z 16008KT 23/18 A301 RMK A01 T02300177  RH  072%=      5-min Rain = 0
KAI1 031246Z 16007KT 23/18 A301 RMK A01 T02310177  RH  072%=      5-min Rain = 0
KAI1 031247Z 15007KT 23/18 A301 RMK A01 T02320178  RH  071%=      5-min Rain = 0
KAI1 031248Z 16006KT 23/18 A301 RMK A01 T02320177  RH  071%=      5-min Rain = 0
KAI1 031249Z 16006KT 23/18 A301 RMK A01 T02330177  RH  071%=      5-min Rain = 0
KAI1 031250Z 16006KT 23/18 A301 RMK A01 T02340177  RH  071%=      5-min Rain = 0
KAI1 031251Z 16007KT 23/18 A301 RMK A01 T02340177  RH  070%=      5-min Rain = 0
KAI1 031252Z 16007KT 24/18 A301 RMK A01 T02350178  RH  070%=      5-min Rain = 0
KAI1 031253Z 16006KT 24/18 A301 RMK A01 T02360178  RH  070%=      5-min Rain = 0
KAI1 031254Z 16006KT 24/18 A301 RMK A01 T02360178  RH  070%=      5-min Rain = 0
KAI1 031255Z 16006KT 24/18 A301 RMK A01 T02370178  RH  069%=      5-min Rain = 0
KAI1 031256Z 16006KT 24/18 A301 RMK A01 T02380177  RH  069%=      5-min Rain = 0
KAI1 031257Z 16007KT 24/18 A301 RMK A01 T02380178  RH  069%=      5-min Rain = 0
KAI1 031258Z 16007KT 24/18 A301 RMK A01 T02390177  RH  068%=      5-min Rain = 0
KAI1 031259Z 16006KT 24/18 A301 RMK A01 T02400178  RH  068%=      5-min Rain = 0
KAI1 031300Z 16006KT 24/18 A301 RMK A01 T02400177  RH  068%=      5-min Rain = 0
KAI1 031301Z 16006KT 24/18 A301 RMK A01 T02410178  RH  068%=      5-min Rain = 0
KAI1 031302Z 16007KT 24/18 A301 RMK A01 T02410178  RH  068%=      5-min Rain = 0
KAI1 031303Z 16006KT 24/18 A301 RMK A01 T02420178  RH  068%=      5-min Rain = 0
KAI1 031304Z 16006KT 24/18 A301 RMK A01 T02420178  RH  067%=      5-min Rain = 0
KAI1 031305Z 16006KT 24/18 A301 RMK A01 T02420178  RH  067%=      5-min Rain = 0
KAI1 031306Z 16005KT 24/18 A301 RMK A01 T02430178  RH  067%=      5-min Rain = 0
KAI1 031307Z 16006KT 24/18 A301 RMK A01 T02440178  RH  067%=      5-min Rain = 0
KAI1 031308Z 16005KT 24/18 A301 RMK A01 T02440178  RH  066%=      5-min Rain = 0
KAI1 031309Z 16006KT 25/18 A301 RMK A01 T02450178  RH  066%=      5-min Rain = 0
KAI1 031310Z 15007KT 25/18 A301 RMK A01 T02460178  RH  066%=      5-min Rain = 0
KAI1 031311Z 15007KT 25/18 A301 RMK A01 T02470177  RH  065%=      5-min Rain = 0
KAI1 031312Z 15006KT 25/18 A301 RMK A01 T02480178  RH  065%=      5-min Rain = 0
KAI1 031313Z 15006KT 25/18 A301 RMK A01 T02480177  RH  065%=      5-min Rain = 0
KAI1 031314Z 15007KT 25/18 A301 RMK A01 T02490178  RH  065%=      5-min Rain = 0
KAI1 031315Z 15008KT 25/18 A301 RMK A01 T02500177  RH  064%=      5-min Rain = 0
KAI1 031316Z 15008KT 25/18 A301 RMK A01 T02510177  RH  064%=      5-min Rain = 0
KAI1 031317Z 15007KT 25/18 A301 RMK A01 T02510177  RH  063%=      5-min Rain = 0
KAI1 031318Z 16007KT 25/18 A301 RMK A01 T02510177  RH  064%=      5-min Rain = 0
KAI1 031319Z 16007KT 25/18 A301 RMK A01 T02510177  RH  063%=      5-min Rain = 0
KAI1 031320Z 16006KT 25/18 A301 RMK A01 T02520178  RH  063%=      5-min Rain = 0
KAI1 031321Z 16007KT 25/18 A301 RMK A01 T02520178  RH  063%=      5-min Rain = 0
KAI1 031322Z 16006KT 25/18 A301 RMK A01 T02520178  RH  063%=      5-min Rain = 0
KAI1 031323Z 16006KT 25/18 A301 RMK A01 T02520178  RH  063%=      5-min Rain = 0
KAI1 031324Z 16007KT 25/18 A301 RMK A01 T02520178  RH  064%=      5-min Rain = 0
KAI1 031325Z 16006KT 25/18 A301 RMK A01 T02510176  RH  063%=      5-min Rain = 0
KAI1 031326Z 16006KT 25/18 A301 RMK A01 T02510178  RH  064%=      5-min Rain = 0
KAI1 031327Z 17007KT 25/18 A301 RMK A01 T02520178  RH  063%=      5-min Rain = 0
KAI1 031328Z 17007KT 25/18 A301 RMK A01 T02530177  RH  063%=      5-min Rain = 0
KAI1 031329Z 16006KT 25/18 A301 RMK A01 T02530176  RH  062%=      5-min Rain = 0
KAI1 031330Z 16005KT 25/18 A301 RMK A01 T02540178  RH  063%=      5-min Rain = 0
KAI1 031331Z 16004KT 25/18 A301 RMK A01 T02540179  RH  063%=      5-min Rain = 0
KAI1 031332Z 16005KT 26/18 A301 RMK A01 T02560178  RH  062%=      5-min Rain = 0
KAI1 031333Z 15006KT 26/18 A301 RMK A01 T02570178  RH  061%=      5-min Rain = 0
KAI1 031334Z 15007KT 26/18 A301 RMK A01 T02580176  RH  060%=      5-min Rain = 0
KAI1 031335Z 16007KT 26/18 A301 RMK A01 T02600175  RH  060%=      5-min Rain = 0
KAI1 031336Z 15006KT 26/18 A301 RMK A01 T02600175  RH  059%=      5-min Rain = 0
KAI1 031337Z 16006KT 26/18 A301 RMK A01 T02610176  RH  060%=      5-min Rain = 0
KAI1 031338Z 15007KT 26/17 A3011 RMK A01 T02620173  RH  058%=      5-min Rain = 0
KAI1 031339Z 16006KT 26/17 A3011 RMK A01 T02630172  RH  057%=      5-min Rain = 0
KAI1 031340Z 16005KT 26/17 A3011 RMK A01 T02640174  RH  058%=      5-min Rain = 0
KAI1 031341Z 16006KT 27/18 A3011 RMK A01 T02650175  RH  058%=      5-min Rain = 0
KAI1 031342Z 15006KT 27/17 A3011 RMK A01 T02660173  RH  057%=      5-min Rain = 0
KAI1 031343Z 15008KT 27/17 A3011 RMK A01 T02670172  RH  056%=      5-min Rain = 0
KAI1 031344Z 15007KT 27/17 A3011 RMK A01 T02680172  RH  056%=      5-min Rain = 0
KAI1 031345Z 15010KT 27/17 A3011 RMK A01 T02680168  RH  054%=      5-min Rain = 0
KAI1 031346Z 16011KT 27/17 A3011 RMK A01 T02670167  RH  054%=      5-min Rain = 0
KAI1 031347Z 15008KT 27/17 A3011 RMK A01 T02660166  RH  054%=      5-min Rain = 0
KAI1 031348Z 16009KT 27/17 A3011 RMK A01 T02650167  RH  055%=      5-min Rain = 0
KAI1 031349Z 16009KT 27/17 A3011 RMK A01 T02650169  RH  055%=      5-min Rain = 0
KAI1 031350Z 16008KT 27/17 A3011 RMK A01 T02650166  RH  055%=      5-min Rain = 0
KAI1 031351Z 16009KT 27/17 A3011 RMK A01 T02650166  RH  054%=      5-min Rain = 0
KAI1 031352Z 15008KT 27/17 A3011 RMK A01 T02660166  RH  054%=      5-min Rain = 0
KAI1 031353Z 15007KT 27/17 A3011 RMK A01 T02660165  RH  054%=      5-min Rain = 0
KAI1 031354Z 16007KT 27/17 A3011 RMK A01 T02670168  RH  055%=      5-min Rain = 0
KAI1 031355Z 16009KT 27/17 A3011 RMK A01 T02670166  RH  054%=      5-min Rain = 0
KAI1 031356Z 15008KT 27/17 A3011 RMK A01 T02670165  RH  054%=      5-min Rain = 0
KAI1 031357Z 15009KT 27/17 A3011 RMK A01 T02680166  RH  054%=      5-min Rain = 0
KAI1 031358Z 15008KT 27/17 A3012 RMK A01 T02680166  RH  054%=      5-min Rain = 0
KAI1 031359Z 15008KT 27/17 A3012 RMK A01 T02680167  RH  054%=      5-min Rain = 0
KAI1 031400Z 14007KT 27/17 A3012 RMK A01 T02690169  RH  054%=      5-min Rain = 0
KAI1 031401Z 14009KT 27/17 A3012 RMK A01 T02700168  RH  054%=      5-min Rain = 0
KAI1 031402Z 15009KT 27/17 A3012 RMK A01 T02700167  RH  053%=      5-min Rain = 0
KAI1 031403Z 15008KT 27/17 A3012 RMK A01 T02700167  RH  053%=      5-min Rain = 0
KAI1 031404Z 15007KT 27/17 A3012 RMK A01 T02700165  RH  053%=      5-min Rain = 0
KAI1 031405Z 16007KT 27/17 A3012 RMK A01 T02710166  RH  053%=      5-min Rain = 0
KAI1 031406Z 15008KT 27/16 A3012 RMK A01 T02720163  RH  051%=      5-min Rain = 0
KAI1 031407Z 16007KT 27/16 A3012 RMK A01 T02730162  RH  051%=      5-min Rain = 0
KAI1 031408Z 16005KT 27/16 A3012 RMK A01 T02740164  RH  051%=      5-min Rain = 0
KAI1 031409Z 15005KT 28/17 A3012 RMK A01 T02750166  RH  052%=      5-min Rain = 0
KAI1 031410Z 15006KT 28/17 A3012 RMK A01 T02760168  RH  052%=      5-min Rain = 0
KAI1 031411Z 15007KT 28/17 A3012 RMK A01 T02760167  RH  051%=      5-min Rain = 0
KAI1 031412Z 14007KT 28/17 A3012 RMK A01 T02770165  RH  051%=      5-min Rain = 0
KAI1 031413Z 15008KT 28/17 A3012 RMK A01 T02780165  RH  050%=      5-min Rain = 0
KAI1 031414Z 15008KT 28/16 A3012 RMK A01 T02780164  RH  050%=      5-min Rain = 0
KAI1 031415Z 16007KT 28/16 A3012 RMK A01 T02790164  RH  050%=      5-min Rain = 0
KAI1 031416Z 15005KT 28/17 A3012 RMK A01 T02780167  RH  051%=      5-min Rain = 0
KAI1 031417Z 16008KT 28/17 A3012 RMK A01 T02790167  RH  050%=      5-min Rain = 0
KAI1 031418Z 15008KT 28/17 A3013 RMK A01 T02800165  RH  050%=      5-min Rain = 0
KAI1 031419Z 16008KT 28/17 A3013 RMK A01 T02790165  RH  050%=      5-min Rain = 0
KAI1 031420Z 17006KT 28/16 A3013 RMK A01 T02790164  RH  049%=      5-min Rain = 0
KAI1 031421Z 16007KT 28/17 A3013 RMK A01 T02790168  RH  051%=      5-min Rain = 0
KAI1 031422Z 16006KT 28/17 A3013 RMK A01 T02790165  RH  050%=      5-min Rain = 0
KAI1 031423Z 15007KT 28/17 A3013 RMK A01 T02790165  RH  050%=      5-min Rain = 0
KAI1 031424Z 14007KT 28/17 A3013 RMK A01 T02790165  RH  050%=      5-min Rain = 0
KAI1 031425Z 14006KT 28/17 A3013 RMK A01 T02800168  RH  051%=      5-min Rain = 0
KAI1 031426Z 15007KT 28/17 A3013 RMK A01 T02820167  RH  050%=      5-min Rain = 0
KAI1 031427Z 15008KT 28/17 A3013 RMK A01 T02820166  RH  049%=      5-min Rain = 0
KAI1 031428Z 16009KT 28/16 A3013 RMK A01 T02830164  RH  049%=      5-min Rain = 0
KAI1 031429Z 15006KT 28/17 A3013 RMK A01 T02830167  RH  049%=      5-min Rain = 0
KAI1 031430Z 15009KT 28/17 A3013 RMK A01 T02840167  RH  049%=      5-min Rain = 0
KAI1 031431Z 16006KT 29/17 A3013 RMK A01 T02850168  RH  049%=      5-min Rain = 0
KAI1 031432Z 16006KT 29/17 A3013 RMK A01 T02860169  RH  049%=      5-min Rain = 0
KAI1 031433Z 16007KT 29/17 A3013 RMK A01 T02860168  RH  049%=      5-min Rain = 0
KAI1 031434Z 15006KT 29/17 A3013 RMK A01 T02860168  RH  049%=      5-min Rain = 0
KAI1 031435Z 14008KT 29/17 A3013 RMK A01 T02860169  RH  049%=      5-min Rain = 0
KAI1 031436Z 16009KT 29/17 A3013 RMK A01 T02860169  RH  049%=      5-min Rain = 0
KAI1 031437Z 17009KT 29/16 A3013 RMK A01 T02860164  RH  047%=      5-min Rain = 0
KAI1 031438Z 15007KT 29/17 A3013 RMK A01 T02860166  RH  048%=      5-min Rain = 0
KAI1 031439Z 16006KT 29/17 A3013 RMK A01 T02850168  RH  049%=      5-min Rain = 0
KAI1 031440Z 15007KT 29/17 A3013 RMK A01 T02860167  RH  049%=      5-min Rain = 0
KAI1 031441Z 14007KT 29/17 A3013 RMK A01 T02870166  RH  048%=      5-min Rain = 0
KAI1 031442Z 17006KT 29/17 A3013 RMK A01 T02880168  RH  048%=      5-min Rain = 0
KAI1 031443Z 17006KT 29/16 A3013 RMK A01 T02890164  RH  047%=      5-min Rain = 0
KAI1 031444Z 16008KT 29/17 A3013 RMK A01 T02890166  RH  048%=      5-min Rain = 0
KAI1 031445Z 16007KT 29/17 A3013 RMK A01 T02890168  RH  048%=      5-min Rain = 0
KAI1 031446Z 17009KT 29/17 A3013 RMK A01 T02900165  RH  047%=      5-min Rain = 0
KAI1 031447Z 16009KT 29/17 A3013 RMK A01 T02890166  RH  047%=      5-min Rain = 0
KAI1 031448Z 16010KT 29/17 A3013 RMK A01 T02890165  RH  047%=      5-min Rain = 0
KAI1 031449Z 17010KT 29/16 A3013 RMK A01 T02880162  RH  046%=      5-min Rain = 0
KAI1 031450Z 17011KT 29/16 A3013 RMK A01 T02880163  RH  047%=      5-min Rain = 0
KAI1 031451Z 17010KT 29/16 A3013 RMK A01 T02860162  RH  047%=      5-min Rain = 0
KAI1 031452Z 18010KT 29/16 A3013 RMK A01 T02860160  RH  046%=      5-min Rain = 0
KAI1 031453Z 19007KT 29/16 A3013 RMK A01 T02870162  RH  047%=      5-min Rain = 0
KAI1 031454Z 17006KT 29/16 A3013 RMK A01 T02890161  RH  046%=      5-min Rain = 0
KAI1 031455Z 16007KT 29/17 A3013 RMK A01 T02900166  RH  047%=      5-min Rain = 0
KAI1 031456Z 18010KT 29/17 A3013 RMK A01 T02910166  RH  047%=      5-min Rain = 0
KAI1 031457Z 18011KT 29/16 A3013 RMK A01 T02910164  RH  046%=      5-min Rain = 0
KAI1 031458Z 18008KT 29/16 A3013 RMK A01 T02910161  RH  046%=      5-min Rain = 0
KAI1 031459Z 18009KT 29/16 A3013 RMK A01 T02920162  RH  045%=      5-min Rain = 0
KAI1 031500Z 17009KT 29/17 A3013 RMK A01 T02940165  RH  046%=      5-min Rain = 0
KAI1 031501Z 17008KT 29/17 A3013 RMK A01 T02940166  RH  046%=      5-min Rain = 0
KAI1 031502Z 18009KT 30/17 A3013 RMK A01 T02960165  RH  045%=      5-min Rain = 0
KAI1 031503Z 18009KT 30/16 A3013 RMK A01 T02970162  RH  044%=      5-min Rain = 0
KAI1 031504Z 18009KT 30/16 A3013 RMK A01 T02960161  RH  044%=      5-min Rain = 0
KAI1 031505Z 18010KT 29/16 A3013 RMK A01 T02940159  RH  044%=      5-min Rain = 0
KAI1 031506Z 17010KT 29/16 A3013 RMK A01 T02920160  RH  045%=      5-min Rain = 0
KAI1 031507Z 17010KT 29/16 A3013 RMK A01 T02920160  RH  045%=      5-min Rain = 0
KAI1 031508Z 18008KT 29/16 A3013 RMK A01 T02910164  RH  046%=      5-min Rain = 0
KAI1 031509Z 18009KT 29/16 A3013 RMK A01 T02930163  RH  046%=      5-min Rain = 0
KAI1 031510Z 19008KT 30/16 A3013 RMK A01 T02950158  RH  044%=      5-min Rain = 0
KAI1 031511Z 18010KT 30/16 A3013 RMK A01 T02970159  RH  043%=      5-min Rain = 0
KAI1 031512Z 18007KT 30/16 A3013 RMK A01 T02970164  RH  045%=      5-min Rain = 0
KAI1 031513Z 19009KT 30/16 A3013 RMK A01 T02990164  RH  044%=      5-min Rain = 0
KAI1 031514Z 19012KT 30/16 A3013 RMK A01 T03010158  RH  042%=      5-min Rain = 0
KAI1 031515Z 19011KT 30/16 A3013 RMK A01 T02990156  RH  042%=      5-min Rain = 0
KAI1 031516Z 19010KT 30/16 A3013 RMK A01 T02960155  RH  042%=      5-min Rain = 0
KAI1 031517Z 19009KT 30/16 A3013 RMK A01 T02950156  RH  043%=      5-min Rain = 0
KAI1 031518Z 18010KT 30/16 A3013 RMK A01 T02970158  RH  043%=      5-min Rain = 0
KAI1 031519Z 19011KT 30/16 A3013 RMK A01 T02980157  RH  043%=      5-min Rain = 0
KAI1 031520Z 17010KT 30/16 A3013 RMK A01 T02970158  RH  043%=      5-min Rain = 0
KAI1 031521Z 17009KT 30/16 A3013 RMK A01 T02960161  RH  044%=      5-min Rain = 0
KAI1 031522Z 17010KT 30/16 A3013 RMK A01 T02950161  RH  045%=      5-min Rain = 0
KAI1 031523Z 17010KT 29/16 A3013 RMK A01 T02940161  RH  044%=      5-min Rain = 0
KAI1 031524Z 15010KT 30/16 A3013 RMK A01 T02950162  RH  045%=      5-min Rain = 0
KAI1 031525Z 17009KT 30/16 A3013 RMK A01 T02950159  RH  044%=      5-min Rain = 0
KAI1 031526Z 17009G14KT 30/16 A3013 RMK A01 T02960162  RH  044%=      5-min Rain = 0
KAI1 031527Z 17012KT 30/16 A3013 RMK A01 T02970162  RH  044%=      5-min Rain = 0
KAI1 031528Z 17011KT 30/16 A3013 RMK A01 T02960160  RH  044%=      5-min Rain = 0
KAI1 031529Z 17010KT 29/16 A3013 RMK A01 T02940161  RH  044%=      5-min Rain = 0
KAI1 031530Z 17011KT 30/16 A3013 RMK A01 T02950162  RH  044%=      5-min Rain = 0
KAI1 031531Z 16010KT 30/16 A3013 RMK A01 T02980159  RH  043%=      5-min Rain = 0
KAI1 031532Z 18008KT 30/16 A3013 RMK A01 T02980161  RH  044%=      5-min Rain = 0
KAI1 031533Z 17008KT 30/17 A3013 RMK A01 T02980165  RH  045%=      5-min Rain = 0
KAI1 031534Z 17010KT 30/17 A3013 RMK A01 T03010167  RH  044%=      5-min Rain = 0
KAI1 031535Z 17010KT 30/16 A3013 RMK A01 T03010164  RH  044%=      5-min Rain = 0
KAI1 031536Z 18009KT 30/16 A3013 RMK A01 T03020164  RH  044%=      5-min Rain = 0
KAI1 031537Z 18010KT 30/16 A3013 RMK A01 T03020162  RH  043%=      5-min Rain = 0
KAI1 031538Z 17007KT 30/16 A3013 RMK A01 T03010160  RH  042%=      5-min Rain = 0
KAI1 031539Z 15008KT 30/16 A3013 RMK A01 T03000164  RH  044%=      5-min Rain = 0
KAI1 031540Z 17009KT 30/17 A3013 RMK A01 T03010166  RH  044%=      5-min Rain = 0
KAI1 031541Z 18009KT 30/16 A3013 RMK A01 T03020163  RH  043%=      5-min Rain = 0
KAI1 031542Z 17006KT 30/16 A3013 RMK A01 T03040163  RH  043%=      5-min Rain = 0
KAI1 031543Z 16006KT 30/16 A3013 RMK A01 T03030163  RH  043%=      5-min Rain = 0
KAI1 031544Z 16007KT 30/16 A3013 RMK A01 T03040163  RH  043%=      5-min Rain = 0
KAI1 031545Z 17009KT 31/16 A3013 RMK A01 T03050163  RH  043%=      5-min Rain = 0
KAI1 031546Z 18010KT 30/16 A3013 RMK A01 T03030164  RH  043%=      5-min Rain = 0
KAI1 031547Z 17008KT 30/16 A3013 RMK A01 T03020162  RH  043%=      5-min Rain = 0
KAI1 031548Z 16007KT 30/16 A3013 RMK A01 T03000162  RH  043%=      5-min Rain = 0
KAI1 031549Z 17007KT 30/17 A3013 RMK A01 T03010166  RH  044%=      5-min Rain = 0
KAI1 031550Z 17010KT 30/16 A3013 RMK A01 T03030163  RH  043%=      5-min Rain = 0
KAI1 031551Z 16009KT 30/16 A3013 RMK A01 T03030164  RH  043%=      5-min Rain = 0
KAI1 031552Z 15010KT 30/17 A3013 RMK A01 T03030166  RH  043%=      5-min Rain = 0
KAI1 031553Z 18011KT 30/17 A3013 RMK A01 T03040165  RH  043%=      5-min Rain = 0
KAI1 031554Z 18012KT 30/16 A3013 RMK A01 T03040163  RH  043%=      5-min Rain = 0
KAI1 031555Z 18013KT 31/16 A3013 RMK A01 T03050162  RH  042%=      5-min Rain = 0
KAI1 031556Z 17009KT 31/16 A3013 RMK A01 T03050160  RH  042%=      5-min Rain = 0
KAI1 031557Z 17008KT 31/16 A3013 RMK A01 T03050159  RH  042%=      5-min Rain = 0
KAI1 031558Z 18005KT 30/16 A3013 RMK A01 T03040159  RH  042%=      5-min Rain = 0
KAI1 031559Z 18008KT 31/16 A3013 RMK A01 T03050160  RH  042%=      5-min Rain = 0
KAI1 031600Z 17008KT 31/16 A3013 RMK A01 T03070163  RH  042%=      5-min Rain = 0
KAI1 031601Z 16009KT 31/17 A3013 RMK A01 T03070165  RH  042%=      5-min Rain = 0
KAI1 031602Z 16011KT 31/17 A3013 RMK A01 T03070167  RH  043%=      5-min Rain = 0
KAI1 031603Z 18010KT 31/16 A3013 RMK A01 T03080163  RH  042%=      5-min Rain = 0
KAI1 031604Z 18008KT 31/17 A3014 RMK A01 T03110166  RH  042%=      5-min Rain = 0
KAI1 031605Z 18009KT 31/16 A3014 RMK A01 T03140161  RH  040%=      5-min Rain = 0
KAI1 031606Z 18007KT 32/16 A3014 RMK A01 T03150157  RH  039%=      5-min Rain = 0
KAI1 031607Z 19007KT 31/16 A3014 RMK A01 T03110157  RH  039%=      5-min Rain = 0
KAI1 031608Z 21006KT 31/15 A3014 RMK A01 T03090154  RH  039%=      5-min Rain = 0
KAI1 031609Z 18006KT 31/15 A3014 RMK A01 T03060154  RH  040%=      5-min Rain = 0
KAI1 031610Z 17007KT 31/16 A3013 RMK A01 T03060163  RH  042%=      5-min Rain = 0
KAI1 031611Z 17006KT 31/16 A3013 RMK A01 T03080162  RH  041%=      5-min Rain = 0
KAI1 031612Z 16007KT 31/16 A3014 RMK A01 T03090164  RH  042%=      5-min Rain = 0
KAI1 031613Z 16006KT 31/17 A3014 RMK A01 T03090169  RH  043%=      5-min Rain = 0
KAI1 031614Z 16007KT 31/17 A3013 RMK A01 T03100166  RH  042%=      5-min Rain = 0
KAI1 031615Z 18008KT 31/16 A3013 RMK A01 T03100164  RH  041%=      5-min Rain = 0
KAI1 031616Z 18007KT 31/16 A3013 RMK A01 T03110155  RH  039%=      5-min Rain = 0
KAI1 031617Z 17005KT 31/15 A3014 RMK A01 T03090154  RH  039%=      5-min Rain = 0
KAI1 031618Z 17007KT 31/16 A3013 RMK A01 T03080158  RH  040%=      5-min Rain = 0
KAI1 031619Z 17009KT 31/16 A3013 RMK A01 T03090159  RH  040%=      5-min Rain = 0
KAI1 031620Z 18009KT 31/16 A3014 RMK A01 T03110157  RH  039%=      5-min Rain = 0
KAI1 031621Z 18007KT 31/16 A3014 RMK A01 T03110158  RH  040%=      5-min Rain = 0
KAI1 031622Z 18004KT 31/16 A3014 RMK A01 T03110157  RH  039%=      5-min Rain = 0
KAI1 031623Z 18005KT 31/16 A3014 RMK A01 T03110160  RH  040%=      5-min Rain = 0
KAI1 031624Z 16009KT 31/16 A3014 RMK A01 T03120162  RH  040%=      5-min Rain = 0
KAI1 031625Z 17008KT 31/17 A3014 RMK A01 T03120165  RH  041%=      5-min Rain = 0
KAI1 031626Z 16007KT 31/16 A3014 RMK A01 T03140162  RH  040%=      5-min Rain = 0
KAI1 031627Z 16008KT 31/16 A3014 RMK A01 T03140163  RH  040%=      5-min Rain = 0
KAI1 031628Z 16006KT 31/16 A3014 RMK A01 T03130159  RH  039%=      5-min Rain = 0
KAI1 031629Z 15005KT 31/16 A3014 RMK A01 T03140161  RH  040%=      5-min Rain = 0
KAI1 031630Z 12004KT 32/16 A3014 RMK A01 T03150160  RH  039%=      5-min Rain = 0
KAI1 031631Z 13007KT 32/16 A3014 RMK A01 T03160164  RH  040%=      5-min Rain = 0
KAI1 031632Z 15006KT 31/16 A3014 RMK A01 T03140164  RH  040%=      5-min Rain = 0
KAI1 031633Z 16010KT 31/17 A3014 RMK A01 T03140165  RH  041%=      5-min Rain = 0
KAI1 031634Z 16008KT 32/16 A3014 RMK A01 T03150161  RH  039%=      5-min Rain = 0
KAI1 031635Z 16007KT 32/16 A3014 RMK A01 T03160162  RH  040%=      5-min Rain = 0
KAI1 031636Z 17007KT 32/16 A3014 RMK A01 T03170161  RH  039%=      5-min Rain = 0
KAI1 031637Z 14006KT 32/17 A3014 RMK A01 T03160168  RH  041%=      5-min Rain = 0
KAI1 031638Z 16006KT 32/16 A3014 RMK A01 T03160163  RH  040%=      5-min Rain = 0
KAI1 031639Z 17006KT 32/16 A3014 RMK A01 T03160161  RH  039%=      5-min Rain = 0
KAI1 031640Z 16007KT 32/16 A3014 RMK A01 T03150158  RH  039%=      5-min Rain = 0
KAI1 031641Z 16008KT 32/16 A3014 RMK A01 T03160162  RH  040%=      5-min Rain = 0
KAI1 031642Z 17006KT 32/16 A3014 RMK A01 T03160160  RH  039%=      5-min Rain = 0
KAI1 031643Z 18005KT 32/16 A3014 RMK A01 T03180162  RH  039%=      5-min Rain = 0
KAI1 031644Z 17008KT 32/16 A3014 RMK A01 T03200158  RH  038%=      5-min Rain = 0
KAI1 031645Z 15008KT 32/16 A3014 RMK A01 T03200160  RH  038%=      5-min Rain = 0
KAI1 031646Z 14006KT 32/16 A3014 RMK A01 T03200160  RH  038%=      5-min Rain = 0
KAI1 031647Z 17005KT 32/16 A3014 RMK A01 T03190157  RH  038%=      5-min Rain = 0
KAI1 031648Z 17006KT 32/16 A3014 RMK A01 T03180158  RH  038%=      5-min Rain = 0
KAI1 031649Z 13007KT 32/16 A3014 RMK A01 T03180164  RH  040%=      5-min Rain = 0
KAI1 031650Z 14008KT 32/16 A3014 RMK A01 T03190163  RH  039%=      5-min Rain = 0
KAI1 031651Z 14005KT 32/16 A3014 RMK A01 T03190160  RH  038%=      5-min Rain = 0
KAI1 031652Z 14005KT 32/16 A3014 RMK A01 T03180160  RH  038%=      5-min Rain = 0
KAI1 031653Z 14005KT 32/16 A3014 RMK A01 T03190160  RH  038%=      5-min Rain = 0
KAI1 031654Z 14006KT 32/16 A3014 RMK A01 T03190160  RH  038%=      5-min Rain = 0
KAI1 031655Z 15005KT 32/16 A3014 RMK A01 T03190162  RH  039%=      5-min Rain = 0
KAI1 031656Z 13008KT 32/16 A3013 RMK A01 T03200161  RH  038%=      5-min Rain = 0
KAI1 031657Z 15007KT 32/16 A3013 RMK A01 T03210161  RH  038%=      5-min Rain = 0
KAI1 031658Z 15010KT 32/17 A3013 RMK A01 T03210169  RH  040%=      5-min Rain = 0
KAI1 031659Z 14008KT 32/16 A3013 RMK A01 T03210162  RH  038%=      5-min Rain = 0
KAI1 031700Z 15007KT 32/16 A3013 RMK A01 T03210160  RH  038%=      5-min Rain = 0
KAI1 031701Z 15004KT 32/16 A3013 RMK A01 T03210156  RH  037%=      5-min Rain = 0
KAI1 031702Z 15006KT 32/16 A3013 RMK A01 T03210158  RH  038%=      5-min Rain = 0
KAI1 031703Z 16010KT 32/16 A3013 RMK A01 T03220161  RH  038%=      5-min Rain = 0
KAI1 031704Z 16004KT 32/15 A3014 RMK A01 T03230154  RH  036%=      5-min Rain = 0
KAI1 031705Z 18004KT 32/15 A3013 RMK A01 T03230152  RH  036%=      5-min Rain = 0
KAI1 031706Z 19005KT 32/15 A3013 RMK A01 T03220151  RH  036%=      5-min Rain = 0
KAI1 031707Z 18006KT 32/15 A3013 RMK A01 T03220151  RH  036%=      5-min Rain = 0
KAI1 031708Z 17004KT 32/15 A3013 RMK A01 T03220150  RH  035%=      5-min Rain = 0
KAI1 031709Z 16004KT 32/15 A3013 RMK A01 T03210150  RH  036%=      5-min Rain = 0
KAI1 031710Z 16004KT 32/16 A3013 RMK A01 T03210155  RH  037%=      5-min Rain = 0
KAI1 031711Z 16006KT 32/16 A3013 RMK A01 T03230160  RH  038%=      5-min Rain = 0
KAI1 031712Z 15006KT 33/16 A3013 RMK A01 T03250162  RH  038%=      5-min Rain = 0
KAI1 031713Z 16006KT 33/16 A3013 RMK A01 T03260162  RH  037%=      5-min Rain = 0
KAI1 031714Z 20007KT 33/16 A3013 RMK A01 T03280159  RH  036%=      5-min Rain = 0
KAI1 031715Z 21006KT 33/15 A3013 RMK A01 T03310154  RH  035%=      5-min Rain = 0
KAI1 031716Z 20005KT 33/15 A3013 RMK A01 T03270153  RH  035%=      5-min Rain = 0
KAI1 031717Z 18005KT 32/15 A3013 RMK A01 T03240154  RH  036%=      5-min Rain = 0
KAI1 031718Z 16005KT 33/16 A3013 RMK A01 T03250164  RH  038%=      5-min Rain = 0
KAI1 031719Z 18008KT 33/16 A3013 RMK A01 T03270161  RH  037%=      5-min Rain = 0
KAI1 031720Z 18006KT 33/15 A3013 RMK A01 T03290153  RH  035%=      5-min Rain = 0
KAI1 031721Z 17006KT 33/15 A3013 RMK A01 T03270150  RH  034%=      5-min Rain = 0
KAI1 031722Z 15008KT 33/16 A3013 RMK A01 T03250156  RH  036%=      5-min Rain = 0
KAI1 031723Z 14008KT 33/16 A3013 RMK A01 T03260155  RH  036%=      5-min Rain = 0
KAI1 031724Z 13006KT 33/16 A3013 RMK A01 T03270156  RH  036%=      5-min Rain = 0
KAI1 031725Z 11004KT 33/16 A3013 RMK A01 T03270157  RH  036%=      5-min Rain = 0
KAI1 031726Z 13004KT 33/16 A3013 RMK A01 T03260155  RH  036%=      5-min Rain = 0
KAI1 031727Z 13004KT 33/16 A3013 RMK A01 T03250159  RH  037%=      5-min Rain = 0
KAI1 031728Z 16008KT 33/16 A3013 RMK A01 T03250161  RH  037%=      5-min Rain = 0
KAI1 031729Z 20007KT 33/16 A3013 RMK A01 T03250159  RH  037%=      5-min Rain = 0
KAI1 031730Z 18008KT 32/15 A3013 RMK A01 T03240154  RH  036%=      5-min Rain = 0
KAI1 031731Z 15010KT 33/16 A3013 RMK A01 T03260158  RH  036%=      5-min Rain = 0
KAI1 031732Z 15007KT 33/15 A3013 RMK A01 T03280151  RH  035%=      5-min Rain = 0
KAI1 031733Z 15008KT 33/16 A3013 RMK A01 T03270156  RH  036%=      5-min Rain = 0
KAI1 031734Z 15008KT 33/16 A3013 RMK A01 T03290158  RH  036%=      5-min Rain = 0
KAI1 031735Z 14009KT 33/16 A3013 RMK A01 T03300155  RH  035%=      5-min Rain = 0
KAI1 031736Z 14008KT 33/15 A3013 RMK A01 T03300153  RH  035%=      5-min Rain = 0
KAI1 031737Z 11008KT 33/15 A3013 RMK A01 T03280150  RH  034%=      5-min Rain = 0
KAI1 031738Z 13006KT 33/15 A3013 RMK A01 T03250148  RH  035%=      5-min Rain = 0
KAI1 031739Z 14002KT 32/15 A3013 RMK A01 T03230145  RH  034%=      5-min Rain = 0
KAI1 031740Z 15005KT 32/15 A3013 RMK A01 T03230148  RH  035%=      5-min Rain = 0
KAI1 031741Z 19009KT 33/15 A3013 RMK A01 T03260154  RH  035%=      5-min Rain = 0
KAI1 031742Z 18008KT 33/15 A3013 RMK A01 T03300153  RH  034%=      5-min Rain = 0
KAI1 031743Z 17008KT 33/15 A3013 RMK A01 T03310153  RH  034%=      5-min Rain = 0
KAI1 031744Z 14008KT 33/15 A3013 RMK A01 T03280152  RH  035%=      5-min Rain = 0
KAI1 031745Z 11007KT 33/15 A3013 RMK A01 T03270150  RH  034%=      5-min Rain = 0
KAI1 031746Z 14005KT 32/15 A3013 RMK A01 T03240148  RH  035%=      5-min Rain = 0
KAI1 031747Z 15004KT 32/15 A3013 RMK A01 T03240145  RH  034%=      5-min Rain = 0
KAI1 031748Z 14006KT 33/15 A3013 RMK A01 T03250148  RH  034%=      5-min Rain = 0
KAI1 031749Z 12006KT 33/15 A3013 RMK A01 T03260153  RH  035%=      5-min Rain = 0
KAI1 031750Z 12004KT 33/15 A3013 RMK A01 T03270152  RH  035%=      5-min Rain = 0
KAI1 031751Z 14005KT 33/16 A3013 RMK A01 T03270156  RH  036%=      5-min Rain = 0
KAI1 031752Z 18009KT 33/15 A3013 RMK A01 T03290150  RH  034%=      5-min Rain = 0
KAI1 031753Z 18010KT 33/15 A3013 RMK A01 T03340147  RH  033%=      5-min Rain = 0
KAI1 031754Z 17008KT 34/15 A3013 RMK A01 T03360148  RH  032%=      5-min Rain = 0
KAI1 031755Z 15007KT 33/15 A3013 RMK A01 T03340151  RH  033%=      5-min Rain = 0
KAI1 031756Z 14005KT 33/15 A3013 RMK A01 T03330150  RH  033%=      5-min Rain = 0
KAI1 031757Z 13007KT 33/15 A3013 RMK A01 T03320150  RH  034%=      5-min Rain = 0
KAI1 031758Z 15009KT 33/16 A3013 RMK A01 T03310155  RH  035%=      5-min Rain = 0
KAI1 031759Z 16007KT 33/15 A3013 RMK A01 T03320147  RH  033%=      5-min Rain = 0
KAI1 031800Z 16009G14KT 33/15 A3013 RMK A01 T03330152  RH  034%=      5-min Rain = 0
KAI1 031801Z 15010KT 33/15 A3013 RMK A01 T03340153  RH  034%=      5-min Rain = 0
KAI1 031802Z 14008KT 33/15 A3013 RMK A01 T03320154  RH  034%=      5-min Rain = 0
KAI1 031803Z 14006KT 33/15 A3013 RMK A01 T03300152  RH  034%=      5-min Rain = 0
KAI1 031804Z 13004KT 33/15 A3013 RMK A01 T03290149  RH  034%=      5-min Rain = 0
KAI1 031805Z 15005KT 33/15 A3013 RMK A01 T03290149  RH  034%=      5-min Rain = 0
KAI1 031806Z 17008G13KT 33/15 A3013 RMK A01 T03310152  RH  034%=      5-min Rain = 0
KAI1 031807Z 15009KT 33/15 A3013 RMK A01 T03320153  RH  034%=      5-min Rain = 0
KAI1 031808Z 16013KT 33/15 A3012 RMK A01 T03330154  RH  034%=      5-min Rain = 0
KAI1 031809Z 17011KT 33/15 A3012 RMK A01 T03330148  RH  033%=      5-min Rain = 0
KAI1 031810Z 18008KT 33/15 A3012 RMK A01 T03310146  RH  033%=      5-min Rain = 0
KAI1 031811Z 17004KT 33/14 A3012 RMK A01 T03280142  RH  033%=      5-min Rain = 0
KAI1 031812Z 18005KT 33/14 A3012 RMK A01 T03280143  RH  033%=      5-min Rain = 0
KAI1 031813Z 18006KT 33/15 A3012 RMK A01 T03300146  RH  033%=      5-min Rain = 0
KAI1 031814Z 16004KT 33/15 A3012 RMK A01 T03330146  RH  032%=      5-min Rain = 0
KAI1 031815Z 15006KT 33/16 A3012 RMK A01 T03330155  RH  034%=      5-min Rain = 0
KAI1 031816Z 15010KT 33/15 A3012 RMK A01 T03330151  RH  034%=      5-min Rain = 0
KAI1 031817Z 17011KT 33/15 A3012 RMK A01 T03340150  RH  033%=      5-min Rain = 0
KAI1 031818Z 17011KT 33/16 A3012 RMK A01 T03340157  RH  035%=      5-min Rain = 0
KAI1 031819Z 18011KT 34/15 A3012 RMK A01 T03360152  RH  033%=      5-min Rain = 0
KAI1 031820Z 18010KT 34/14 A3012 RMK A01 T03380144  RH  031%=      5-min Rain = 0
KAI1 031821Z 18009KT 34/15 A3012 RMK A01 T03360149  RH  033%=      5-min Rain = 0
KAI1 031822Z 18008KT 34/14 A3012 RMK A01 T03350143  RH  032%=      5-min Rain = 0
KAI1 031823Z 17009KT 33/15 A3012 RMK A01 T03340146  RH  032%=      5-min Rain = 0
KAI1 031824Z 17009KT 34/15 A3012 RMK A01 T03350148  RH  033%=      5-min Rain = 0
KAI1 031825Z 16008KT 34/15 A3012 RMK A01 T03360148  RH  032%=      5-min Rain = 0
KAI1 031826Z 14008KT 34/16 A3012 RMK A01 T03370155  RH  034%=      5-min Rain = 0
KAI1 031827Z 14008KT 34/15 A3012 RMK A01 T03360152  RH  033%=      5-min Rain = 0
KAI1 031828Z 13010KT 34/15 A3012 RMK A01 T03350152  RH  033%=      5-min Rain = 0
KAI1 031829Z 11006KT 34/15 A3012 RMK A01 T03360153  RH  033%=      5-min Rain = 0
KAI1 031830Z 13013KT 34/15 A3012 RMK A01 T03370154  RH  034%=      5-min Rain = 0
KAI1 031831Z 14007G12KT 33/15 A3012 RMK A01 T03340148  RH  033%=      5-min Rain = 0
KAI1 031832Z 13005KT 33/15 A3012 RMK A01 T03340150  RH  033%=      5-min Rain = 0
KAI1 031833Z 09009KT 34/15 A3012 RMK A01 T03350152  RH  033%=      5-min Rain = 0
KAI1 031834Z 12009G14KT 34/15 A3011 RMK A01 T03360154  RH  034%=      5-min Rain = 0
KAI1 031835Z 16012KT 34/15 A3011 RMK A01 T03380150  RH  032%=      5-min Rain = 0
KAI1 031836Z 18010KT 34/15 A3011 RMK A01 T03390146  RH  031%=      5-min Rain = 0
KAI1 031837Z 16011KT 34/15 A3011 RMK A01 T03410146  RH  031%=      5-min Rain = 0
KAI1 031838Z 15009KT 34/15 A3011 RMK A01 T03390149  RH  032%=      5-min Rain = 0
KAI1 031839Z 16008KT 34/15 A3011 RMK A01 T03370149  RH  032%=      5-min Rain = 0
KAI1 031840Z 18011KT 34/15 A3011 RMK A01 T03380145  RH  031%=      5-min Rain = 0
KAI1 031841Z 17011KT 34/14 A3011 RMK A01 T03400144  RH  031%=      5-min Rain = 0
KAI1 031842Z 18010KT 34/15 A3011 RMK A01 T03400151  RH  032%=      5-min Rain = 0
KAI1 031843Z 18008KT 34/14 A3011 RMK A01 T03380136  RH  030%=      5-min Rain = 0
KAI1 031844Z 18012KT 34/14 A3011 RMK A01 T03350138  RH  030%=      5-min Rain = 0
KAI1 031845Z 17009G14KT 34/14 A3011 RMK A01 T03360138  RH  030%=      5-min Rain = 0
KAI1 031846Z 15009KT 34/15 A3011 RMK A01 T03360145  RH  032%=      5-min Rain = 0
KAI1 031847Z 15009KT 34/15 A3011 RMK A01 T03370146  RH  032%=      5-min Rain = 0
KAI1 031848Z 14009KT 34/15 A3011 RMK A01 T03380150  RH  032%=      5-min Rain = 0
KAI1 031849Z 14009KT 34/15 A3011 RMK A01 T03420150  RH  032%=      5-min Rain = 0
KAI1 031850Z 14009KT 34/14 A3011 RMK A01 T03410142  RH  030%=      5-min Rain = 0
KAI1 031851Z 13008KT 34/14 A3011 RMK A01 T03370141  RH  031%=      5-min Rain = 0
KAI1 031852Z 14006KT 33/14 A3011 RMK A01 T03340141  RH  031%=      5-min Rain = 0
KAI1 031853Z 12010KT 33/15 A3011 RMK A01 T03340146  RH  032%=      5-min Rain = 0
KAI1 031854Z 15007KT 33/15 A3011 RMK A01 T03340146  RH  032%=      5-min Rain = 0
KAI1 031855Z 17011KT 34/14 A3011 RMK A01 T03350144  RH  032%=      5-min Rain = 0
KAI1 031856Z 16009KT 34/15 A3011 RMK A01 T03360146  RH  032%=      5-min Rain = 0
KAI1 031857Z 17010KT 34/15 A3011 RMK A01 T03390149  RH  032%=      5-min Rain = 0
KAI1 031858Z 16011KT 34/15 A3011 RMK A01 T03400146  RH  031%=      5-min Rain = 0
KAI1 031859Z 16012KT 34/15 A3011 RMK A01 T03400147  RH  031%=      5-min Rain = 0
KAI1 031900Z 17014KT 34/14 A3011 RMK A01 T03410142  RH  030%=      5-min Rain = 0
KAI1 031901Z 15010KT 34/14 A3011 RMK A01 T03400140  RH  030%=      5-min Rain = 0
KAI1 031902Z 15012G18KT 34/14 A3011 RMK A01 T03390143  RH  031%=      5-min Rain = 0
KAI1 031903Z 16013KT 34/15 A3011 RMK A01 T03390147  RH  031%=      5-min Rain = 0
KAI1 031904Z 16011KT 34/14 A3011 RMK A01 T03400139  RH  030%=      5-min Rain = 0
KAI1 031905Z 16009KT 34/14 A3011 RMK A01 T03390138  RH  030%=      5-min Rain = 0
KAI1 031906Z 17004KT 34/13 A3011 RMK A01 T03400133  RH  029%=      5-min Rain = 0
KAI1 031907Z 15006KT 34/14 A3011 RMK A01 T03390137  RH  030%=      5-min Rain = 0
KAI1 031908Z 15009G15KT 34/15 A301 RMK A01 T03410146  RH  031%=      5-min Rain = 0
KAI1 031909Z 15012KT 34/14 A3011 RMK A01 T03430143  RH  030%=      5-min Rain = 0
KAI1 031910Z 14011KT 34/14 A301 RMK A01 T03430140  RH  030%=      5-min Rain = 0
KAI1 031911Z 14008KT 34/14 A301 RMK A01 T03410140  RH  030%=      5-min Rain = 0
KAI1 031912Z 17009KT 34/14 A301 RMK A01 T03400142  RH  030%=      5-min Rain = 0
KAI1 031913Z 17011KT 34/14 A301 RMK A01 T03400137  RH  029%=      5-min Rain = 0
KAI1 031914Z 17012KT 34/14 A301 RMK A01 T03420140  RH  030%=      5-min Rain = 0
KAI1 031915Z 18013KT 34/13 A301 RMK A01 T03410134  RH  029%=      5-min Rain = 0
KAI1 031916Z 20009KT 34/13 A301 RMK A01 T03390127  RH  028%=      5-min Rain = 0
KAI1 031917Z 21009KT 34/13 A301 RMK A01 T03370126  RH  028%=      5-min Rain = 0
KAI1 031918Z 19010KT 34/13 A301 RMK A01 T03390130  RH  028%=      5-min Rain = 0
KAI1 031919Z 18009KT 34/13 A301 RMK A01 T03430132  RH  028%=      5-min Rain = 0
KAI1 031920Z 17009G14KT 35/13 A301 RMK A01 T03450131  RH  027%=      5-min Rain = 0
KAI1 031921Z 16011KT 35/14 A301 RMK A01 T03470138  RH  028%=      5-min Rain = 0
KAI1 031922Z 17008KT 35/13 A301 RMK A01 T03460130  RH  027%=      5-min Rain = 0
KAI1 031923Z 16010KT 34/14 A301 RMK A01 T03430137  RH  029%=      5-min Rain = 0
KAI1 031924Z 18010KT 34/14 A301 RMK A01 T03420139  RH  029%=      5-min Rain = 0
KAI1 031925Z 18010KT 35/13 A301 RMK A01 T03460134  RH  028%=      5-min Rain = 0
KAI1 031926Z 17010KT 35/13 A301 RMK A01 T03470130  RH  027%=      5-min Rain = 0
KAI1 031927Z 19007KT 34/12 A301 RMK A01 T03440122  RH  026%=      5-min Rain = 0
KAI1 031928Z 17006KT 34/12 A301 RMK A01 T03390122  RH  027%=      5-min Rain = 0
KAI1 031929Z 16003KT 34/12 A301 RMK A01 T03380124  RH  027%=      5-min Rain = 0
KAI1 031930Z 19004KT 34/13 A301 RMK A01 T03390126  RH  028%=      5-min Rain = 0
KAI1 031931Z 17004KT 34/13 A301 RMK A01 T03400127  RH  028%=      5-min Rain = 0
KAI1 031932Z 16007KT 34/14 A301 RMK A01 T03400139  RH  030%=      5-min Rain = 0
KAI1 031933Z 15012KT 34/15 A301 RMK A01 T03440145  RH  030%=      5-min Rain = 0
KAI1 031934Z 15007KT 35/13 A301 RMK A01 T03460131  RH  027%=      5-min Rain = 0
KAI1 031935Z 14009KT 34/14 A301 RMK A01 T03440136  RH  029%=      5-min Rain = 0
KAI1 031936Z 15009KT 34/14 A301 RMK A01 T03420136  RH  029%=      5-min Rain = 0
KAI1 031937Z 14014G20KT 34/14 A301 RMK A01 T03410135  RH  029%=      5-min Rain = 0
KAI1 031938Z 14013KT 34/13 A301 RMK A01 T03410134  RH  029%=      5-min Rain = 0
KAI1 031939Z 14011KT 34/14 A301 RMK A01 T03410136  RH  029%=      5-min Rain = 0
KAI1 031940Z 15011KT 34/14 A301 RMK A01 T03400135  RH  029%=      5-min Rain = 0
KAI1 031941Z 14011KT 34/13 A301 RMK A01 T03420133  RH  028%=      5-min Rain = 0
KAI1 031942Z 14007KT 34/13 A301 RMK A01 T03400133  RH  029%=      5-min Rain = 0
KAI1 031943Z 16010G16KT 34/14 A301 RMK A01 T03390135  RH  029%=      5-min Rain = 0
KAI1 031944Z 16013KT 34/14 A301 RMK A01 T03410135  RH  029%=      5-min Rain = 0
KAI1 031945Z 16011KT 34/13 A301 RMK A01 T03420133  RH  028%=      5-min Rain = 0
KAI1 031946Z 14010KT 34/13 A301 RMK A01 T03420130  RH  028%=      5-min Rain = 0
KAI1 031947Z 15006KT 34/13 A301 RMK A01 T03420130  RH  028%=      5-min Rain = 0
KAI1 031948Z 16008KT 34/14 A301 RMK A01 T03410137  RH  029%=      5-min Rain = 0
KAI1 031949Z 18010KT 34/13 A301 RMK A01 T03440131  RH  028%=      5-min Rain = 0
KAI1 031950Z 19013KT 35/13 A301 RMK A01 T03460126  RH  027%=      5-min Rain = 0
KAI1 031951Z 18008G13KT 34/12 A301 RMK A01 T03440122  RH  026%=      5-min Rain = 0
KAI1 031952Z 18007KT 34/12 A3009 RMK A01 T03430123  RH  026%=      5-min Rain = 0
KAI1 031953Z 19010KT 34/13 A3009 RMK A01 T03440127  RH  027%=      5-min Rain = 0
KAI1 031954Z 19010KT 35/13 A3009 RMK A01 T03480126  RH  026%=      5-min Rain = 0
KAI1 031955Z 18009KT 35/12 A3009 RMK A01 T03460123  RH  026%=      5-min Rain = 0
KAI1 031956Z 19007KT 34/12 A3009 RMK A01 T03430122  RH  026%=      5-min Rain = 0
KAI1 031957Z 19008KT 34/12 A3009 RMK A01 T03420124  RH  027%=      5-min Rain = 0
KAI1 031958Z 18008KT 35/13 A3009 RMK A01 T03460130  RH  027%=      5-min Rain = 0
KAI1 031959Z 17007KT 35/14 A3009 RMK A01 T03490135  RH  028%=      5-min Rain = 0
KAI1 032000Z 18006KT 35/13 A3009 RMK A01 T03500132  RH  027%=      5-min Rain = 0
KAI1 032001Z 18009KT 35/13 A3009 RMK A01 T03520126  RH  026%=      5-min Rain = 0
KAI1 032002Z 18009KT 35/12 A3009 RMK A01 T03520124  RH  025%=      5-min Rain = 0
KAI1 032003Z 18010KT 35/13 A3009 RMK A01 T03510126  RH  026%=      5-min Rain = 0
KAI1 032004Z 18008KT 35/12 A3009 RMK A01 T03510123  RH  025%=      5-min Rain = 0
KAI1 032005Z 16008KT 35/13 A3009 RMK A01 T03510126  RH  026%=      5-min Rain = 0
KAI1 032006Z 17007KT 35/13 A3009 RMK A01 T03510127  RH  026%=      5-min Rain = 0
KAI1 032007Z 17008KT 35/13 A3009 RMK A01 T03470131  RH  027%=      5-min Rain = 0
KAI1 032008Z 19005KT 35/12 A3009 RMK A01 T03450119  RH  025%=      5-min Rain = 0
KAI1 032009Z 19003KT 34/12 A3009 RMK A01 T03430119  RH  026%=      5-min Rain = 0
KAI1 032010Z 15009KT 34/13 A3009 RMK A01 T03440125  RH  027%=      5-min Rain = 0
KAI1 032011Z 12006G11KT 35/12 A3009 RMK A01 T03470123  RH  026%=      5-min Rain = 0
KAI1 032012Z 14004KT 35/12 A3009 RMK A01 T03470119  RH  025%=      5-min Rain = 0
KAI1 032013Z 12002KT 35/12 A3009 RMK A01 T03460121  RH  026%=      5-min Rain = 0
KAI1 032014Z 20003KT 35/12 A3009 RMK A01 T03450124  RH  026%=      5-min Rain = 0
KAI1 032015Z 19004KT 35/12 A3009 RMK A01 T03460121  RH  026%=      5-min Rain = 0
KAI1 032016Z 14005KT 35/13 A3009 RMK A01 T03480126  RH  026%=      5-min Rain = 0
KAI1 032017Z 15006KT 35/14 A3009 RMK A01 T03500137  RH  028%=      5-min Rain = 0
KAI1 032018Z 17008KT 35/14 A3009 RMK A01 T03510137  RH  028%=      5-min Rain = 0
KAI1 032019Z 17009KT 35/12 A3009 RMK A01 T03510123  RH  025%=      5-min Rain = 0
KAI1 032020Z 15008KT 35/13 A3009 RMK A01 T03480126  RH  026%=      5-min Rain = 0
KAI1 032021Z 17007KT 35/12 A3009 RMK A01 T03480124  RH  026%=      5-min Rain = 0
KAI1 032022Z 16011KT 35/13 A3009 RMK A01 T03470125  RH  026%=      5-min Rain = 0
KAI1 032023Z 17010KT 35/12 A3009 RMK A01 T03470124  RH  026%=      5-min Rain = 0
KAI1 032024Z 17008KT 35/12 A3009 RMK A01 T03480124  RH  026%=      5-min Rain = 0
KAI1 032025Z 19009KT 35/12 A3009 RMK A01 T03490123  RH  026%=      5-min Rain = 0
KAI1 032026Z 19008KT 35/12 A3009 RMK A01 T03490120  RH  025%=      5-min Rain = 0
KAI1 032027Z 17006KT 35/12 A3009 RMK A01 T03460117  RH  025%=      5-min Rain = 0
KAI1 032028Z 15007KT 34/13 A3009 RMK A01 T03440128  RH  027%=      5-min Rain = 0
KAI1 032029Z 16007KT 35/13 A3009 RMK A01 T03460129  RH  027%=      5-min Rain = 0
KAI1 032030Z 18008KT 35/13 A3009 RMK A01 T03470127  RH  027%=      5-min Rain = 0
KAI1 032031Z 16004KT 35/12 A3009 RMK A01 T03470119  RH  025%=      5-min Rain = 0
KAI1 032032Z 16007KT 35/12 A3009 RMK A01 T03470123  RH  026%=      5-min Rain = 0
KAI1 032033Z 17006KT 35/12 A3009 RMK A01 T03480123  RH  026%=      5-min Rain = 0
KAI1 032034Z 16003KT 35/12 A3009 RMK A01 T03490121  RH  025%=      5-min Rain = 0
KAI1 032035Z 18002G7KT 35/12 A3008 RMK A01 T03480120  RH  025%=      5-min Rain = 0
KAI1 032036Z 17005KT 35/12 A3008 RMK A01 T03480122  RH  025%=      5-min Rain = 0
KAI1 032037Z 19005KT 35/12 A3008 RMK A01 T03490121  RH  025%=      5-min Rain = 0
KAI1 032038Z 18006KT 35/12 A3008 RMK A01 T03470119  RH  025%=      5-min Rain = 0
KAI1 032039Z 18008KT 35/12 A3008 RMK A01 T03470120  RH  025%=      5-min Rain = 0
KAI1 032040Z 15008KT 35/12 A3008 RMK A01 T03470124  RH  026%=      5-min Rain = 0
KAI1 032041Z 13009KT 35/14 A3008 RMK A01 T03470136  RH  028%=      5-min Rain = 0
KAI1 032042Z 15007KT 35/13 A3008 RMK A01 T03480130  RH  027%=      5-min Rain = 0
KAI1 032043Z 16008KT 35/13 A3008 RMK A01 T03490132  RH  027%=      5-min Rain = 0
KAI1 032044Z 16010KT 35/13 A3008 RMK A01 T03510133  RH  027%=      5-min Rain = 0
KAI1 032045Z 19005KT 35/12 A3008 RMK A01 T03520121  RH  025%=      5-min Rain = 0
KAI1 032046Z 16005KT 35/12 A3008 RMK A01 T03530120  RH  024%=      5-min Rain = 0
KAI1 032047Z 14008KT 35/13 A3008 RMK A01 T03520130  RH  026%=      5-min Rain = 0
KAI1 032048Z 15007KT 35/13 A3008 RMK A01 T03510130  RH  027%=      5-min Rain = 0
KAI1 032049Z 16004KT 35/12 A3008 RMK A01 T03510119  RH  025%=      5-min Rain = 0
KAI1 032050Z 12004KT 35/13 A3008 RMK A01 T03520125  RH  025%=      5-min Rain = 0
KAI1 032051Z 12006KT 35/13 A3008 RMK A01 T03510126  RH  026%=      5-min Rain = 0
KAI1 032052Z 15005KT 35/13 A3008 RMK A01 T03480125  RH  026%=      5-min Rain = 0
KAI1 032053Z 16003KT 35/12 A3008 RMK A01 T03470119  RH  025%=      5-min Rain = 0
KAI1 032054Z 17003KT 35/12 A3008 RMK A01 T03480116  RH  025%=      5-min Rain = 0
KAI1 032055Z 17008KT 35/12 A3008 RMK A01 T03500120  RH  025%=      5-min Rain = 0
KAI1 032056Z 17007KT 35/12 A3008 RMK A01 T03510119  RH  025%=      5-min Rain = 0
KAI1 032057Z 18009KT 35/12 A3008 RMK A01 T03500121  RH  025%=      5-min Rain = 0
KAI1 032058Z 17010KT 35/12 A3008 RMK A01 T03510118  RH  024%=      5-min Rain = 0
KAI1 032059Z 18009KT 35/12 A3008 RMK A01 T03500120  RH  025%=      5-min Rain = 0
KAI1 032100Z 17011KT 35/12 A3008 RMK A01 T03520123  RH  025%=      5-min Rain = 0
KAI1 032101Z 15007KT 36/13 A3008 RMK A01 T03550126  RH  025%=      5-min Rain = 0
KAI1 032102Z 17006KT 36/13 A3007 RMK A01 T03550127  RH  025%=      5-min Rain = 0
KAI1 032103Z 20008KT 36/12 A3007 RMK A01 T03560124  RH  025%=      5-min Rain = 0
KAI1 032104Z 21008KT 36/12 A3007 RMK A01 T03560118  RH  024%=      5-min Rain = 0
KAI1 032105Z 20011KT 36/12 A3007 RMK A01 T03570118  RH  024%=      5-min Rain = 0
KAI1 032106Z 16008KT 36/13 A3007 RMK A01 T03550125  RH  025%=      5-min Rain = 0
KAI1 032107Z 15006KT 35/13 A3007 RMK A01 T03530130  RH  026%=      5-min Rain = 0
KAI1 032108Z 17005KT 35/12 A3007 RMK A01 T03520124  RH  025%=      5-min Rain = 0
KAI1 032109Z 19008KT 35/12 A3007 RMK A01 T03510123  RH  025%=      5-min Rain = 0
KAI1 032110Z 19007KT 35/12 A3007 RMK A01 T03520118  RH  024%=      5-min Rain = 0
KAI1 032111Z 17005KT 35/12 A3007 RMK A01 T03520116  RH  024%=      5-min Rain = 0
KAI1 032112Z 17004KT 35/12 A3007 RMK A01 T03510124  RH  025%=      5-min Rain = 0
KAI1 032113Z 18006KT 35/12 A3007 RMK A01 T03540124  RH  025%=      5-min Rain = 0
KAI1 032114Z 18006KT 36/12 A3007 RMK A01 T03550120  RH  024%=      5-min Rain = 0
KAI1 032115Z 17009KT 36/13 A3007 RMK A01 T03550129  RH  026%=      5-min Rain = 0
KAI1 032116Z 16011KT 36/13 A3007 RMK A01 T03550126  RH  025%=      5-min Rain = 0
KAI1 032117Z 16011KT 36/13 A3007 RMK A01 T03550129  RH  026%=      5-min Rain = 0
KAI1 032118Z 17009KT 36/13 A3007 RMK A01 T03550126  RH  025%=      5-min Rain = 0
KAI1 032119Z 16008KT 35/13 A3007 RMK A01 T03540126  RH  025%=      5-min Rain = 0
KAI1 032120Z 16010KT 35/13 A3007 RMK A01 T03540128  RH  026%=      5-min Rain = 0
KAI1 032121Z 14010KT 35/13 A3007 RMK A01 T03540129  RH  026%=      5-min Rain = 0
KAI1 032122Z 13008KT 35/13 A3007 RMK A01 T03530132  RH  027%=      5-min Rain = 0
KAI1 032123Z 14008KT 35/13 A3007 RMK A01 T03510127  RH  026%=      5-min Rain = 0
KAI1 032124Z 14007KT 35/13 A3007 RMK A01 T03490126  RH  026%=      5-min Rain = 0
KAI1 032125Z 15008KT 35/13 A3007 RMK A01 T03500131  RH  027%=      5-min Rain = 0
KAI1 032126Z 17006KT 35/12 A3007 RMK A01 T03500122  RH  025%=      5-min Rain = 0
KAI1 032127Z 17005KT 35/12 A3007 RMK A01 T03500117  RH  024%=      5-min Rain = 0
KAI1 032128Z 13006KT 35/13 A3007 RMK A01 T03500125  RH  026%=      5-min Rain = 0
KAI1 032129Z 14007KT 35/13 A3007 RMK A01 T03520127  RH  026%=      5-min Rain = 0
KAI1 032130Z 15008KT 35/13 A3007 RMK A01 T03510130  RH  026%=      5-min Rain = 0
KAI1 032131Z 15005KT 35/12 A3007 RMK A01 T03510121  RH  025%=      5-min Rain = 0
KAI1 032132Z 14004KT 35/13 A3007 RMK A01 T03500127  RH  026%=      5-min Rain = 0
KAI1 032133Z 13004KT 35/12 A3007 RMK A01 T03520121  RH  025%=      5-min Rain = 0
KAI1 032134Z 16004KT 35/12 A3007 RMK A01 T03520120  RH  025%=      5-min Rain = 0
KAI1 032135Z 16009KT 35/13 A3007 RMK A01 T03510129  RH  026%=      5-min Rain = 0
KAI1 032136Z 16006KT 35/13 A3007 RMK A01 T03520130  RH  026%=      5-min Rain = 0
KAI1 032137Z 17008KT 35/12 A3007 RMK A01 T03530124  RH  025%=      5-min Rain = 0
KAI1 032138Z 17009KT 35/13 A3007 RMK A01 T03530128  RH  026%=      5-min Rain = 0
KAI1 032139Z 14012KT 35/13 A3007 RMK A01 T03530133  RH  027%=      5-min Rain = 0
KAI1 032140Z 13009KT 35/13 A3007 RMK A01 T03520126  RH  026%=      5-min Rain = 0
KAI1 032141Z 15007KT 35/13 A3007 RMK A01 T03490126  RH  026%=      5-min Rain = 0
KAI1 032142Z 17006KT 35/13 A3007 RMK A01 T03480129  RH  027%=      5-min Rain = 0
KAI1 032143Z 16006KT 35/12 A3007 RMK A01 T03500120  RH  025%=      5-min Rain = 0
KAI1 032144Z 17005KT 35/12 A3007 RMK A01 T03500118  RH  025%=      5-min Rain = 0
KAI1 032145Z 20003KT 35/12 A3007 RMK A01 T03510116  RH  024%=      5-min Rain = 0
KAI1 032146Z 20003KT 35/12 A3007 RMK A01 T03510115  RH  024%=      5-min Rain = 0
KAI1 032147Z 23006KT 35/12 A3006 RMK A01 T03490115  RH  024%=      5-min Rain = 0
KAI1 032148Z 21005KT 35/12 A3006 RMK A01 T03480117  RH  025%=      5-min Rain = 0
KAI1 032149Z 12003KT 35/12 A3006 RMK A01 T03480117  RH  025%=      5-min Rain = 0
KAI1 032150Z 15004KT 35/12 A3006 RMK A01 T03490121  RH  025%=      5-min Rain = 0
KAI1 032151Z 18005KT 35/12 A3006 RMK A01 T03490123  RH  025%=      5-min Rain = 0
KAI1 032152Z 20008KT 35/12 A3006 RMK A01 T03500120  RH  025%=      5-min Rain = 0
KAI1 032153Z 19008KT 35/12 A3006 RMK A01 T03540116  RH  024%=      5-min Rain = 0
KAI1 032154Z 20008KT 36/12 A3006 RMK A01 T03560116  RH  024%=      5-min Rain = 0
KAI1 032155Z 20009KT 36/12 A3006 RMK A01 T03550117  RH  024%=      5-min Rain = 0
KAI1 032156Z 17010G15KT 36/12 A3006 RMK A01 T03550122  RH  025%=      5-min Rain = 0
KAI1 032157Z 16011KT 35/13 A3006 RMK A01 T03520133  RH  027%=      5-min Rain = 0
KAI1 032158Z 17010KT 35/13 A3006 RMK A01 T03510130  RH  027%=      5-min Rain = 0
KAI1 032159Z 17009KT 35/12 A3006 RMK A01 T03530122  RH  025%=      5-min Rain = 0
KAI1 032200Z 17011KT 35/13 A3006 RMK A01 T03540130  RH  026%=      5-min Rain = 0
KAI1 032201Z 16009KT 35/12 A3006 RMK A01 T03540120  RH  024%=      5-min Rain = 0
KAI1 032202Z 15007KT 35/12 A3006 RMK A01 T03540122  RH  025%=      5-min Rain = 0
KAI1 032203Z 15005KT 35/12 A3006 RMK A01 T03530122  RH  025%=      5-min Rain = 0
KAI1 032204Z 16004KT 35/13 A3006 RMK A01 T03530128  RH  026%=      5-min Rain = 0
KAI1 032205Z 18006KT 35/12 A3006 RMK A01 T03530122  RH  025%=      5-min Rain = 0
KAI1 032206Z 19006KT 35/12 A3006 RMK A01 T03530118  RH  024%=      5-min Rain = 0
KAI1 032207Z 18007KT 35/12 A3006 RMK A01 T03520120  RH  025%=      5-min Rain = 0
KAI1 032208Z 15011G17KT 35/14 A3005 RMK A01 T03520135  RH  027%=      5-min Rain = 0
KAI1 032209Z 15013KT 35/13 A3006 RMK A01 T03520132  RH  027%=      5-min Rain = 0
KAI1 032210Z 16013KT 35/13 A3006 RMK A01 T03530131  RH  026%=      5-min Rain = 0
KAI1 032211Z 16010KT 35/13 A3006 RMK A01 T03530127  RH  026%=      5-min Rain = 0
KAI1 032212Z 16004KT 35/12 A3006 RMK A01 T03530123  RH  025%=      5-min Rain = 0
KAI1 032213Z 17004KT 35/12 A3006 RMK A01 T03530124  RH  025%=      5-min Rain = 0
KAI1 032214Z 16004KT 35/12 A3006 RMK A01 T03540119  RH  024%=      5-min Rain = 0
KAI1 032215Z 17008KT 35/13 A3006 RMK A01 T03540128  RH  026%=      5-min Rain = 0
KAI1 032216Z 18010KT 36/13 A3005 RMK A01 T03550129  RH  026%=      5-min Rain = 0
KAI1 032217Z 17011KT 36/13 A3005 RMK A01 T03570131  RH  026%=      5-min Rain = 0
KAI1 032218Z 16009KT 35/13 A3005 RMK A01 T03540129  RH  026%=      5-min Rain = 0
KAI1 032219Z 15009KT 35/13 A3006 RMK A01 T03520133  RH  027%=      5-min Rain = 0
KAI1 032220Z 15007KT 35/14 A3006 RMK A01 T03530139  RH  028%=      5-min Rain = 0
KAI1 032221Z 14007KT 35/13 A3005 RMK A01 T03540133  RH  026%=      5-min Rain = 0
KAI1 032222Z 15005KT 35/13 A3005 RMK A01 T03540132  RH  026%=      5-min Rain = 0
KAI1 032223Z 18005KT 35/13 A3005 RMK A01 T03540126  RH  025%=      5-min Rain = 0
KAI1 032224Z 19005KT 35/12 A3005 RMK A01 T03540122  RH  025%=      5-min Rain = 0
KAI1 032225Z 17007KT 35/12 A3006 RMK A01 T03540123  RH  025%=      5-min Rain = 0
KAI1 032226Z 15009KT 35/13 A3006 RMK A01 T03540134  RH  027%=      5-min Rain = 0
KAI1 032227Z 14007KT 35/13 A3006 RMK A01 T03540131  RH  026%=      5-min Rain = 0
KAI1 032228Z 15005KT 35/14 A3006 RMK A01 T03530135  RH  027%=      5-min Rain = 0
KAI1 032229Z 17006KT 35/13 A3006 RMK A01 T03530130  RH  026%=      5-min Rain = 0
KAI1 032230Z 17006KT 35/13 A3006 RMK A01 T03540130  RH  026%=      5-min Rain = 0
KAI1 032231Z 18004KT 35/13 A3006 RMK A01 T03540125  RH  025%=      5-min Rain = 0
KAI1 032232Z 17004KT 35/13 A3006 RMK A01 T03500126  RH  026%=      5-min Rain = 0
KAI1 032233Z 18005KT 35/12 A3005 RMK A01 T03490124  RH  026%=      5-min Rain = 0
KAI1 032234Z 19008KT 35/12 A3005 RMK A01 T03480122  RH  026%=      5-min Rain = 0
KAI1 032235Z 20007KT 35/12 A3005 RMK A01 T03500122  RH  025%=      5-min Rain = 0
KAI1 032236Z 18007KT 35/12 A3005 RMK A01 T03520123  RH  025%=      5-min Rain = 0
KAI1 032237Z 15006KT 35/13 A3005 RMK A01 T03530128  RH  026%=      5-min Rain = 0
KAI1 032238Z 17005KT 35/13 A3005 RMK A01 T03530127  RH  026%=      5-min Rain = 0
KAI1 032239Z 17007KT 35/13 A3005 RMK A01 T03530130  RH  026%=      5-min Rain = 0
KAI1 032240Z 16008KT 35/13 A3005 RMK A01 T03520132  RH  027%=      5-min Rain = 0
KAI1 032241Z 17007KT 35/14 A3005 RMK A01 T03520137  RH  028%=      5-min Rain = 0
KAI1 032242Z 18009KT 35/13 A3005 RMK A01 T03540133  RH  026%=      5-min Rain = 0
KAI1 032243Z 17007KT 36/14 A3005 RMK A01 T03570137  RH  027%=      5-min Rain = 0
KAI1 032244Z 17008KT 36/14 A3005 RMK A01 T03580142  RH  028%=      5-min Rain = 0
KAI1 032245Z 17009KT 35/14 A3005 RMK A01 T03540136  RH  027%=      5-min Rain = 0
KAI1 032246Z 18007KT 35/13 A3005 RMK A01 T03530130  RH  026%=      5-min Rain = 0
KAI1 032247Z 16005KT 36/14 A3005 RMK A01 T03560137  RH  027%=      5-min Rain = 0
KAI1 032248Z 17007KT 36/14 A3005 RMK A01 T03570140  RH  027%=      5-min Rain = 0
KAI1 032249Z 13008KT 36/14 A3005 RMK A01 T03580140  RH  027%=      5-min Rain = 0
KAI1 032250Z 10007KT 36/13 A3005 RMK A01 T03560132  RH  026%=      5-min Rain = 0
KAI1 032251Z 15009KT 35/13 A3005 RMK A01 T03520131  RH  027%=      5-min Rain = 0
KAI1 032252Z 15010KT 35/14 A3004 RMK A01 T03500135  RH  027%=      5-min Rain = 0
KAI1 032253Z 12009KT 35/13 A3005 RMK A01 T03500130  RH  027%=      5-min Rain = 0
KAI1 032254Z 14006KT 35/14 A3005 RMK A01 T03490136  RH  028%=      5-min Rain = 0
KAI1 032255Z 15008KT 35/13 A3005 RMK A01 T03500133  RH  027%=      5-min Rain = 0
KAI1 032256Z 14007KT 35/13 A3004 RMK A01 T03520131  RH  027%=      5-min Rain = 0
KAI1 032257Z 14005KT 35/13 A3004 RMK A01 T03520129  RH  026%=      5-min Rain = 0
KAI1 032258Z 13005KT 35/13 A3004 RMK A01 T03510131  RH  027%=      5-min Rain = 0
KAI1 032259Z 12004KT 35/13 A3004 RMK A01 T03500129  RH  026%=      5-min Rain = 0
KAI1 032300Z 14004KT 35/12 A3004 RMK A01 T03500124  RH  026%=      5-min Rain = 0
KAI1 032301Z 13004KT 35/13 A3004 RMK A01 T03500126  RH  026%=      5-min Rain = 0
KAI1 032302Z 15005KT 35/14 A3004 RMK A01 T03510139  RH  028%=      5-min Rain = 0
KAI1 032303Z 17007KT 35/14 A3004 RMK A01 T03520141  RH  028%=      5-min Rain = 0
KAI1 032304Z 16007KT 35/14 A3004 RMK A01 T03530138  RH  028%=      5-min Rain = 0
KAI1 032305Z 16007KT 35/14 A3004 RMK A01 T03530139  RH  028%=      5-min Rain = 0
KAI1 032306Z 15006KT 35/14 A3004 RMK A01 T03540143  RH  028%=      5-min Rain = 0
KAI1 032307Z 15009KT 35/15 A3004 RMK A01 T03540145  RH  029%=      5-min Rain = 0
KAI1 032308Z 17010KT 35/13 A3004 RMK A01 T03540134  RH  027%=      5-min Rain = 0
KAI1 032309Z 17010KT 36/13 A3004 RMK A01 T03550132  RH  026%=      5-min Rain = 0
KAI1 032310Z 18011KT 35/13 A3004 RMK A01 T03540132  RH  026%=      5-min Rain = 0
KAI1 032311Z 18009KT 36/13 A3004 RMK A01 T03550132  RH  026%=      5-min Rain = 0
KAI1 032312Z 18011KT 36/14 A3004 RMK A01 T03570135  RH  026%=      5-min Rain = 0
KAI1 032313Z 18008KT 36/13 A3004 RMK A01 T03550129  RH  026%=      5-min Rain = 0
KAI1 032314Z 18007KT 36/13 A3004 RMK A01 T03550130  RH  026%=      5-min Rain = 0
KAI1 032315Z 17006KT 36/13 A3004 RMK A01 T03560134  RH  026%=      5-min Rain = 0
KAI1 032316Z 17007KT 35/14 A3004 RMK A01 T03540135  RH  027%=      5-min Rain = 0
KAI1 032317Z 18007KT 35/13 A3004 RMK A01 T03520133  RH  027%=      5-min Rain = 0
KAI1 032318Z 17006KT 35/13 A3004 RMK A01 T03510130  RH  027%=      5-min Rain = 0
KAI1 032319Z 16006KT 35/13 A3004 RMK A01 T03500130  RH  027%=      5-min Rain = 0
KAI1 032320Z 18006KT 35/12 A3004 RMK A01 T03480124  RH  026%=      5-min Rain = 0
KAI1 032321Z 17005KT 35/13 A3003 RMK A01 T03470129  RH  027%=      5-min Rain = 0
KAI1 032322Z 18010G16KT 35/14 A3003 RMK A01 T03480135  RH  028%=      5-min Rain = 0
KAI1 032323Z 14007G15KT 35/14 A3003 RMK A01 T03500143  RH  029%=      5-min Rain = 0
KAI1 032324Z 16007KT 35/14 A3003 RMK A01 T03490142  RH  029%=      5-min Rain = 0
KAI1 032325Z 16009KT 35/13 A3003 RMK A01 T03480127  RH  026%=      5-min Rain = 0
KAI1 032326Z 17007KT 35/13 A3003 RMK A01 T03470129  RH  027%=      5-min Rain = 0
KAI1 032327Z 15007G12KT 35/13 A3003 RMK A01 T03490130  RH  027%=      5-min Rain = 0
KAI1 032328Z 13011KT 35/14 A3003 RMK A01 T03500136  RH  028%=      5-min Rain = 0
KAI1 032329Z 13011KT 35/13 A3003 RMK A01 T03480130  RH  027%=      5-min Rain = 0
KAI1 032330Z 12010KT 35/13 A3003 RMK A01 T03450133  RH  028%=      5-min Rain = 0
KAI1 032331Z 13009KT 34/13 A3003 RMK A01 T03440130  RH  027%=      5-min Rain = 0
KAI1 032332Z 13007KT 34/13 A3003 RMK A01 T03430129  RH  027%=      5-min Rain = 0
KAI1 032333Z 13007KT 34/13 A3003 RMK A01 T03430132  RH  028%=      5-min Rain = 0
KAI1 032334Z 16006KT 34/13 A3003 RMK A01 T03440133  RH  028%=      5-min Rain = 0
KAI1 032335Z 17006KT 35/13 A3003 RMK A01 T03450126  RH  027%=      5-min Rain = 0
KAI1 032336Z 19005KT 35/13 A3003 RMK A01 T03460126  RH  027%=      5-min Rain = 0
KAI1 032337Z 17005KT 35/13 A3003 RMK A01 T03470125  RH  026%=      5-min Rain = 0
KAI1 032338Z 17007KT 35/13 A3003 RMK A01 T03490131  RH  027%=      5-min Rain = 0
KAI1 032339Z 17006KT 35/14 A3003 RMK A01 T03480137  RH  028%=      5-min Rain = 0
KAI1 032340Z 15011KT 35/14 A3003 RMK A01 T03470140  RH  029%=      5-min Rain = 0
KAI1 032341Z 15011KT 35/13 A3003 RMK A01 T03470134  RH  028%=      5-min Rain = 0
KAI1 032342Z 14010KT 35/13 A3003 RMK A01 T03470133  RH  028%=      5-min Rain = 0
KAI1 032343Z 15009KT 35/13 A3003 RMK A01 T03470132  RH  027%=      5-min Rain = 0
KAI1 032344Z 16009KT 35/13 A3003 RMK A01 T03470134  RH  028%=      5-min Rain = 0
KAI1 032345Z 15008KT 35/14 A3003 RMK A01 T03470139  RH  029%=      5-min Rain = 0
KAI1 032346Z 14012KT 35/14 A3003 RMK A01 T03470136  RH  028%=      5-min Rain = 0
KAI1 032347Z 15011KT 35/13 A3003 RMK A01 T03480133  RH  027%=      5-min Rain = 0
KAI1 032348Z 16010KT 35/14 A3003 RMK A01 T03480135  RH  028%=      5-min Rain = 0
KAI1 032349Z 17011KT 35/14 A3003 RMK A01 T03490135  RH  028%=      5-min Rain = 0
KAI1 032350Z 16009KT 35/13 A3003 RMK A01 T03490131  RH  027%=      5-min Rain = 0
KAI1 032351Z 17009KT 35/14 A3003 RMK A01 T03480135  RH  028%=      5-min Rain = 0
KAI1 032352Z 16008KT 35/14 A3003 RMK A01 T03490137  RH  028%=      5-min Rain = 0
KAI1 032353Z 16010KT 35/14 A3003 RMK A01 T03490139  RH  028%=      5-min Rain = 0
KAI1 032354Z 16008KT 35/14 A3003 RMK A01 T03490139  RH  028%=      5-min Rain = 0
KAI1 032355Z 15010KT 35/14 A3003 RMK A01 T03500137  RH  028%=      5-min Rain = 0
KAI1 032356Z 15008KT 35/13 A3003 RMK A01 T03500131  RH  027%=      5-min Rain = 0
KAI1 032357Z 17007KT 35/13 A3003 RMK A01 T03490130  RH  027%=      5-min Rain = 0
KAI1 032358Z 16008KT 35/13 A3003 RMK A01 T03480132  RH  027%=      5-min Rain = 0
KAI1 032359Z 14007KT 35/14 A3003 RMK A01 T03470138  RH  029%=      5-min Rain = 0
KAI1 040000Z 15008KT 35/14 A3003 RMK A01 T03460138  RH  029%=      5-min Rain = 0
KAI1 040001Z 16007KT 35/13 A3003 RMK A01 T03460134  RH  028%=      5-min Rain = 0
KAI1 040002Z 15007KT 35/13 A3003 RMK A01 T03460130  RH  027%=      5-min Rain = 0
KAI1 040003Z 15008KT 35/13 A3003 RMK A01 T03460131  RH  027%=      5-min Rain = 0
KAI1 040004Z 15009KT 35/13 A3003 RMK A01 T03460133  RH  028%=      5-min Rain = 0
KAI1 040005Z 14008KT 35/13 A3003 RMK A01 T03460131  RH  027%=      5-min Rain = 0
KAI1 040006Z 14006KT 34/13 A3003 RMK A01 T03440128  RH  027%=      5-min Rain = 0
KAI1 040007Z 15006KT 34/13 A3003 RMK A01 T03430133  RH  028%=      5-min Rain = 0
KAI1 040008Z 16005KT 34/13 A3003 RMK A01 T03430132  RH  028%=      5-min Rain = 0
KAI1 040009Z 17007KT 34/13 A3003 RMK A01 T03440133  RH  028%=      5-min Rain = 0
KAI1 040010Z 16006KT 35/13 A3003 RMK A01 T03450133  RH  028%=      5-min Rain = 0
KAI1 040011Z 17006KT 35/14 A3003 RMK A01 T03450140  RH  029%=      5-min Rain = 0
KAI1 040012Z 18008KT 35/14 A3003 RMK A01 T03450138  RH  029%=      5-min Rain = 0
KAI1 040013Z 17008KT 34/14 A3003 RMK A01 T03440135  RH  029%=      5-min Rain = 0
KAI1 040014Z 17009KT 34/13 A3003 RMK A01 T03420131  RH  028%=      5-min Rain = 0
KAI1 040015Z 17008KT 34/14 A3003 RMK A01 T03410137  RH  029%=      5-min Rain = 0
KAI1 040016Z 17008KT 34/14 A3003 RMK A01 T03400136  RH  029%=      5-min Rain = 0
KAI1 040017Z 17007KT 34/14 A3003 RMK A01 T03390139  RH  030%=      5-min Rain = 0
KAI1 040018Z 17009KT 34/14 A3004 RMK A01 T03380140  RH  030%=      5-min Rain = 0
KAI1 040019Z 17009KT 34/14 A3004 RMK A01 T03380137  RH  030%=      5-min Rain = 0
KAI1 040020Z 17009KT 34/14 A3004 RMK A01 T03380135  RH  029%=      5-min Rain = 0
KAI1 040021Z 17008KT 34/14 A3004 RMK A01 T03390136  RH  030%=      5-min Rain = 0
KAI1 040022Z 16009KT 34/14 A3004 RMK A01 T03370137  RH  030%=      5-min Rain = 0
KAI1 040023Z 16008KT 34/14 A3004 RMK A01 T03370135  RH  030%=      5-min Rain = 0
KAI1 040024Z 16008KT 34/14 A3004 RMK A01 T03370135  RH  030%=      5-min Rain = 0
KAI1 040025Z 16008KT 34/14 A3004 RMK A01 T03370136  RH  030%=      5-min Rain = 0
KAI1 040026Z 17007KT 34/14 A3004 RMK A01 T03370137  RH  030%=      5-min Rain = 0
KAI1 040027Z 17006KT 34/14 A3004 RMK A01 T03360136  RH  030%=      5-min Rain = 0
KAI1 040028Z 17006KT 34/14 A3004 RMK A01 T03350137  RH  030%=      5-min Rain = 0
KAI1 040029Z 17007KT 33/14 A3004 RMK A01 T03340138  RH  031%=      5-min Rain = 0
KAI1 040030Z 17006KT 33/14 A3004 RMK A01 T03340136  RH  030%=      5-min Rain = 0
KAI1 040031Z 16006KT 33/14 A3004 RMK A01 T03340138  RH  031%=      5-min Rain = 0
KAI1 040032Z 17006KT 33/14 A3004 RMK A01 T03330137  RH  031%=      5-min Rain = 0
KAI1 040033Z 17006KT 33/14 A3004 RMK A01 T03320135  RH  030%=      5-min Rain = 0
KAI1 040034Z 16007KT 33/13 A3004 RMK A01 T03320134  RH  030%=      5-min Rain = 0
KAI1 040035Z 16007KT 33/13 A3004 RMK A01 T03320132  RH  030%=      5-min Rain = 0
KAI1 040036Z 16007KT 33/13 A3004 RMK A01 T03320133  RH  030%=      5-min Rain = 0
KAI1 040037Z 15007KT 33/13 A3004 RMK A01 T03330133  RH  030%=      5-min Rain = 0
KAI1 040038Z 15006KT 33/14 A3004 RMK A01 T03330135  RH  030%=      5-min Rain = 0
KAI1 040039Z 15009KT 33/13 A3004 RMK A01 T03320134  RH  030%=      5-min Rain = 0
KAI1 040040Z 15008KT 33/13 A3004 RMK A01 T03320132  RH  030%=      5-min Rain = 0
KAI1 040041Z 15007KT 33/13 A3004 RMK A01 T03310132  RH  030%=      5-min Rain = 0
KAI1 040042Z 16006KT 33/13 A3004 RMK A01 T03320131  RH  030%=      5-min Rain = 0
KAI1 040043Z 16008KT 33/13 A3004 RMK A01 T03320131  RH  030%=      5-min Rain = 0
KAI1 040044Z 16007KT 33/13 A3005 RMK A01 T03320132  RH  030%=      5-min Rain = 0
KAI1 040045Z 16007KT 33/14 A3005 RMK A01 T03320135  RH  030%=      5-min Rain = 0
KAI1 040046Z 16007KT 33/14 A3005 RMK A01 T03310137  RH  031%=      5-min Rain = 0
KAI1 040047Z 16007KT 33/14 A3005 RMK A01 T03310137  RH  031%=      5-min Rain = 0
KAI1 040048Z 16008KT 33/14 A3005 RMK A01 T03300136  RH  031%=      5-min Rain = 0
KAI1 040049Z 16008KT 33/13 A3005 RMK A01 T03300134  RH  031%=      5-min Rain = 0
KAI1 040050Z 16007KT 33/13 A3005 RMK A01 T03300134  RH  031%=      5-min Rain = 0
KAI1 040051Z 16007KT 33/14 A3005 RMK A01 T03300135  RH  031%=      5-min Rain = 0
KAI1 040052Z 16008KT 33/14 A3005 RMK A01 T03300135  RH  031%=      5-min Rain = 0
KAI1 040053Z 16008KT 33/13 A3005 RMK A01 T03290133  RH  030%=      5-min Rain = 0
KAI1 040054Z 16007KT 33/13 A3005 RMK A01 T03290132  RH  030%=      5-min Rain = 0
KAI1 040055Z 16008KT 33/13 A3005 RMK A01 T03290134  RH  031%=      5-min Rain = 0
KAI1 040056Z 17009KT 33/13 A3005 RMK A01 T03290133  RH  031%=      5-min Rain = 0
KAI1 040057Z 17008KT 33/13 A3005 RMK A01 T03280130  RH  030%=      5-min Rain = 0
KAI1 040058Z 17008KT 33/13 A3005 RMK A01 T03280131  RH  030%=      5-min Rain = 0
KAI1 040059Z 17006KT 33/13 A3005 RMK A01 T03280132  RH  030%=      5-min Rain = 0
KAI1 040100Z 16006KT 33/13 A3005 RMK A01 T03270134  RH  031%=      5-min Rain = 0
KAI1 040101Z 16005KT 33/14 A3005 RMK A01 T03270135  RH  031%=      5-min Rain = 0
KAI1 040102Z 15007KT 33/14 A3005 RMK A01 T03260136  RH  032%=      5-min Rain = 0
KAI1 040103Z 16006KT 33/14 A3005 RMK A01 T03260135  RH  032%=      5-min Rain = 0
KAI1 040104Z 15009KT 33/13 A3005 RMK A01 T03250133  RH  031%=      5-min Rain = 0
KAI1 040105Z 16009KT 33/13 A3005 RMK A01 T03250133  RH  031%=      5-min Rain = 0
KAI1 040106Z 17006KT 33/13 A3005 RMK A01 T03260134  RH  031%=      5-min Rain = 0
KAI1 040107Z 17007KT 33/14 A3005 RMK A01 T03250137  RH  032%=      5-min Rain = 0
KAI1 040108Z 17007KT 33/14 A3005 RMK A01 T03250138  RH  032%=      5-min Rain = 0
KAI1 040109Z 16007KT 32/14 A3005 RMK A01 T03230137  RH  032%=      5-min Rain = 0
KAI1 040110Z 16006KT 32/14 A3005 RMK A01 T03220137  RH  033%=      5-min Rain = 0
KAI1 040111Z 16006KT 32/14 A3005 RMK A01 T03210138  RH  033%=      5-min Rain = 0
KAI1 040112Z 16007KT 32/14 A3005 RMK A01 T03210137  RH  033%=      5-min Rain = 0
KAI1 040113Z 16007KT 32/14 A3005 RMK A01 T03210137  RH  033%=      5-min Rain = 0
KAI1 040114Z 16007KT 32/14 A3005 RMK A01 T03210137  RH  033%=      5-min Rain = 0
KAI1 040115Z 16007KT 32/14 A3005 RMK A01 T03210137  RH  033%=      5-min Rain = 0
KAI1 040116Z 16007KT 32/13 A3005 RMK A01 T03210134  RH  032%=      5-min Rain = 0
KAI1 040117Z 16007KT 32/13 A3005 RMK A01 T03210134  RH  032%=      5-min Rain = 0
KAI1 040118Z 16007KT 32/13 A3005 RMK A01 T03210134  RH  032%=      5-min Rain = 0
KAI1 040119Z 16007KT 32/13 A3005 RMK A01 T03210134  RH  032%=      5-min Rain = 0
KAI1 040120Z 16007KT 32/13 A3005 RMK A01 T03200134  RH  032%=      5-min Rain = 0
KAI1 040121Z 16007KT 32/13 A3005 RMK A01 T03200134  RH  032%=      5-min Rain = 0
KAI1 040122Z 16007KT 32/14 A3005 RMK A01 T03200135  RH  032%=      5-min Rain = 0
KAI1 040123Z 16007KT 32/14 A3005 RMK A01 T03190135  RH  033%=      5-min Rain = 0
KAI1 040124Z 16008KT 32/13 A3005 RMK A01 T03180134  RH  033%=      5-min Rain = 0
KAI1 040125Z 16008KT 32/13 A3005 RMK A01 T03180134  RH  033%=      5-min Rain = 0
KAI1 040126Z 15007KT 32/13 A3005 RMK A01 T03170134  RH  033%=      5-min Rain = 0
KAI1 040127Z 15007KT 32/13 A3005 RMK A01 T03170134  RH  033%=      5-min Rain = 0
KAI1 040128Z 15006KT 32/14 A3005 RMK A01 T03160135  RH  033%=      5-min Rain = 0
KAI1 040129Z 15006KT 32/14 A3005 RMK A01 T03150136  RH  034%=      5-min Rain = 0
KAI1 040130Z 14006KT 31/14 A3005 RMK A01 T03140136  RH  034%=      5-min Rain = 0
KAI1 040131Z 14005KT 31/14 A3005 RMK A01 T03130136  RH  034%=      5-min Rain = 0
KAI1 040132Z 14005KT 31/14 A3005 RMK A01 T03120136  RH  034%=      5-min Rain = 0
KAI1 040133Z 13005KT 31/14 A3005 RMK A01 T03110136  RH  034%=      5-min Rain = 0
KAI1 040134Z 14005KT 31/14 A3005 RMK A01 T03100136  RH  035%=      5-min Rain = 0
KAI1 040135Z 14005KT 31/14 A3005 RMK A01 T03090136  RH  035%=      5-min Rain = 0
KAI1 040136Z 14005KT 31/14 A3005 RMK A01 T03080136  RH  035%=      5-min Rain = 0
KAI1 040137Z 14005KT 31/14 A3005 RMK A01 T03070137  RH  036%=      5-min Rain = 0
KAI1 040138Z 14005KT 31/14 A3005 RMK A01 T03060138  RH  036%=      5-min Rain = 0
KAI1 040139Z 14006KT 31/14 A3005 RMK A01 T03060138  RH  036%=      5-min Rain = 0
KAI1 040140Z 14005KT 31/14 A3005 RMK A01 T03050138  RH  036%=      5-min Rain = 0
KAI1 040141Z 14006KT 30/14 A3005 RMK A01 T03040139  RH  036%=      5-min Rain = 0
KAI1 040142Z 15005KT 30/14 A3005 RMK A01 T03040139  RH  037%=      5-min Rain = 0
KAI1 040143Z 14005KT 30/14 A3005 RMK A01 T03030139  RH  037%=      5-min Rain = 0
KAI1 040144Z 15006KT 30/14 A3005 RMK A01 T03030139  RH  037%=      5-min Rain = 0
KAI1 040145Z 15006KT 30/14 A3005 RMK A01 T03020138  RH  037%=      5-min Rain = 0
KAI1 040146Z 15006KT 30/14 A3005 RMK A01 T03020138  RH  037%=      5-min Rain = 0
KAI1 040147Z 15006KT 30/14 A3005 RMK A01 T03010138  RH  037%=      5-min Rain = 0
KAI1 040148Z 15006KT 30/14 A3005 RMK A01 T03010138  RH  037%=      5-min Rain = 0
KAI1 040149Z 16006KT 30/14 A3005 RMK A01 T03000139  RH  037%=      5-min Rain = 0
KAI1 040150Z 16006KT 30/14 A3005 RMK A01 T03000139  RH  037%=      5-min Rain = 0
KAI1 040151Z 16007KT 30/14 A3005 RMK A01 T03000140  RH  038%=      5-min Rain = 0
KAI1 040152Z 16007KT 30/14 A3005 RMK A01 T02990140  RH  038%=      5-min Rain = 0
KAI1 040153Z 16006KT 30/14 A3005 RMK A01 T02990140  RH  038%=      5-min Rain = 0
KAI1 040154Z 16007KT 30/14 A3005 RMK A01 T02990140  RH  038%=      5-min Rain = 0
KAI1 040155Z 16007KT 30/14 A3005 RMK A01 T02990140  RH  038%=      5-min Rain = 0
KAI1 040156Z 15007KT 30/14 A3005 RMK A01 T02990139  RH  038%=      5-min Rain = 0
KAI1 040157Z 16006KT 30/14 A3005 RMK A01 T02990138  RH  038%=      5-min Rain = 0
KAI1 040158Z 16006KT 30/14 A3005 RMK A01 T02990138  RH  037%=      5-min Rain = 0
KAI1 040159Z 16006KT 30/14 A3005 RMK A01 T02990139  RH  038%=      5-min Rain = 0
KAI1 040200Z 16006KT 30/14 A3005 RMK A01 T02980139  RH  038%=      5-min Rain = 0
KAI1 040201Z 16007KT 30/14 A3005 RMK A01 T02980139  RH  038%=      5-min Rain = 0
KAI1 040202Z 16006KT 30/14 A3005 RMK A01 T02970139  RH  038%=      5-min Rain = 0
KAI1 040203Z 16006KT 30/14 A3005 RMK A01 T02970139  RH  038%=      5-min Rain = 0
KAI1 040204Z 15006KT 30/14 A3005 RMK A01 T02960140  RH  039%=      5-min Rain = 0
KAI1 040205Z 16005KT 30/14 A3005 RMK A01 T02960141  RH  039%=      5-min Rain = 0
KAI1 040206Z 15005KT 30/14 A3005 RMK A01 T02950141  RH  039%=      5-min Rain = 0
KAI1 040207Z 15005KT 29/14 A3005 RMK A01 T02940142  RH  040%=      5-min Rain = 0
KAI1 040208Z 15005KT 29/14 A3005 RMK A01 T02930142  RH  040%=      5-min Rain = 0
KAI1 040209Z 14005KT 29/14 A3005 RMK A01 T02920142  RH  040%=      5-min Rain = 0
KAI1 040210Z 13004KT 29/14 A3006 RMK A01 T02910143  RH  040%=      5-min Rain = 0
KAI1 040211Z 11003KT 29/14 A3006 RMK A01 T02890143  RH  041%=      5-min Rain = 0
KAI1 040212Z 12005KT 29/14 A3006 RMK A01 T02870141  RH  041%=      5-min Rain = 0
KAI1 040213Z 12006KT 29/14 A3006 RMK A01 T02850138  RH  041%=      5-min Rain = 0
KAI1 040214Z 12006KT 29/14 A3006 RMK A01 T02850140  RH  041%=      5-min Rain = 0
KAI1 040215Z 12006KT 29/14 A3006 RMK A01 T02850141  RH  041%=      5-min Rain = 0
KAI1 040216Z 13006KT 29/14 A3006 RMK A01 T02850141  RH  041%=      5-min Rain = 0
KAI1 040217Z 13005KT 28/14 A3006 RMK A01 T02840141  RH  041%=      5-min Rain = 0
KAI1 040218Z 13005KT 28/14 A3006 RMK A01 T02840141  RH  041%=      5-min Rain = 0
KAI1 040219Z 13005KT 28/14 A3006 RMK A01 T02830140  RH  041%=      5-min Rain = 0
KAI1 040220Z 13005KT 28/14 A3006 RMK A01 T02830140  RH  041%=      5-min Rain = 0
KAI1 040221Z 13005KT 28/14 A3006 RMK A01 T02830140  RH  041%=      5-min Rain = 0
KAI1 040222Z 13006KT 28/14 A3006 RMK A01 T02830140  RH  041%=      5-min Rain = 0
KAI1 040223Z 13006KT 28/14 A3006 RMK A01 T02830139  RH  041%=      5-min Rain = 0
KAI1 040224Z 13007KT 28/14 A3006 RMK A01 T02830138  RH  041%=      5-min Rain = 0
KAI1 040225Z 13007KT 28/14 A3006 RMK A01 T02840139  RH  041%=      5-min Rain = 0
KAI1 040226Z 14006KT 29/14 A3006 RMK A01 T02850139  RH  041%=      5-min Rain = 0
KAI1 040227Z 14006KT 29/14 A3006 RMK A01 T02860139  RH  041%=      5-min Rain = 0
KAI1 040228Z 14006KT 29/14 A3006 RMK A01 T02860139  RH  041%=      5-min Rain = 0
KAI1 040229Z 14006KT 29/14 A3007 RMK A01 T02860139  RH  041%=      5-min Rain = 0
KAI1 040230Z 13006KT 29/14 A3007 RMK A01 T02850139  RH  041%=      5-min Rain = 0
KAI1 040231Z 13006KT 29/14 A3007 RMK A01 T02850140  RH  041%=      5-min Rain = 0
KAI1 040232Z 13006KT 29/14 A3007 RMK A01 T02850140  RH  041%=      5-min Rain = 0
KAI1 040233Z 13006KT 29/14 A3007 RMK A01 T02850140  RH  041%=      5-min Rain = 0
KAI1 040234Z 13006KT 29/14 A3007 RMK A01 T02850140  RH  041%=      5-min Rain = 0
KAI1 040235Z 13006KT 29/14 A3007 RMK A01 T02850140  RH  041%=      5-min Rain = 0
KAI1 040236Z 13006KT 29/14 A3007 RMK A01 T02850141  RH  041%=      5-min Rain = 0
KAI1 040237Z 13006KT 28/14 A3007 RMK A01 T02840141  RH  041%=      5-min Rain = 0
KAI1 040238Z 13006KT 28/14 A3007 RMK A01 T02840141  RH  041%=      5-min Rain = 0
KAI1 040239Z 13006KT 28/14 A3007 RMK A01 T02840141  RH  042%=      5-min Rain = 0
KAI1 040240Z 14006KT 28/14 A3007 RMK A01 T02840141  RH  042%=      5-min Rain = 0
KAI1 040241Z 13006KT 28/14 A3007 RMK A01 T02830141  RH  042%=      5-min Rain = 0
KAI1 040242Z 14006KT 28/14 A3007 RMK A01 T02830141  RH  042%=      5-min Rain = 0
KAI1 040243Z 14006KT 28/14 A3008 RMK A01 T02830142  RH  042%=      5-min Rain = 0
KAI1 040244Z 14006KT 28/14 A3008 RMK A01 T02830142  RH  042%=      5-min Rain = 0
KAI1 040245Z 14006KT 28/14 A3008 RMK A01 T02820142  RH  042%=      5-min Rain = 0
KAI1 040246Z 14006KT 28/14 A3008 RMK A01 T02820142  RH  042%=      5-min Rain = 0
KAI1 040247Z 14006KT 28/14 A3008 RMK A01 T02810142  RH  043%=      5-min Rain = 0
KAI1 040248Z 14006KT 28/14 A3008 RMK A01 T02810142  RH  043%=      5-min Rain = 0
KAI1 040249Z 14006KT 28/14 A3007 RMK A01 T02800142  RH  043%=      5-min Rain = 0
KAI1 040250Z 14006KT 28/14 A3007 RMK A01 T02800142  RH  043%=      5-min Rain = 0
KAI1 040251Z 14006KT 28/14 A3007 RMK A01 T02800142  RH  043%=      5-min Rain = 0
KAI1 040252Z 14006KT 28/14 A3007 RMK A01 T02790141  RH  043%=      5-min Rain = 0
KAI1 040253Z 14006KT 28/14 A3007 RMK A01 T02790141  RH  043%=      5-min Rain = 0
KAI1 040254Z 14006KT 28/14 A3008 RMK A01 T02790141  RH  043%=      5-min Rain = 0
KAI1 040255Z 14006KT 28/14 A3008 RMK A01 T02790140  RH  043%=      5-min Rain = 0
KAI1 040256Z 14006KT 28/14 A3008 RMK A01 T02790141  RH  043%=      5-min Rain = 0
KAI1 040257Z 14005KT 28/14 A3008 RMK A01 T02780141  RH  043%=      5-min Rain = 0
KAI1 040258Z 14005KT 28/14 A3008 RMK A01 T02780141  RH  043%=      5-min Rain = 0
KAI1 040259Z 14005KT 28/14 A3008 RMK A01 T02780141  RH  043%=      5-min Rain = 0
KAI1 040300Z 14005KT 28/14 A3008 RMK A01 T02770141  RH  043%=      5-min Rain = 0
KAI1 040301Z 14005KT 28/14 A3008 RMK A01 T02770141  RH  043%=      5-min Rain = 0
KAI1 040302Z 14005KT 28/14 A3008 RMK A01 T02760141  RH  044%=      5-min Rain = 0
KAI1 040303Z 15005KT 28/14 A3008 RMK A01 T02760141  RH  044%=      5-min Rain = 0
KAI1 040304Z 15006KT 28/14 A3009 RMK A01 T02750140  RH  044%=      5-min Rain = 0
KAI1 040305Z 15006KT 28/14 A3009 RMK A01 T02750140  RH  044%=      5-min Rain = 0
KAI1 040306Z 15006KT 27/14 A3009 RMK A01 T02740139  RH  043%=      5-min Rain = 0
KAI1 040307Z 15006KT 27/14 A3009 RMK A01 T02740140  RH  044%=      5-min Rain = 0
KAI1 040308Z 15006KT 27/14 A3009 RMK A01 T02740140  RH  044%=      5-min Rain = 0
KAI1 040309Z 15006KT 27/14 A3009 RMK A01 T02740140  RH  044%=      5-min Rain = 0
KAI1 040310Z 15006KT 27/14 A3009 RMK A01 T02740139  RH  043%=      5-min Rain = 0
KAI1 040311Z 15006KT 27/14 A3009 RMK A01 T02740139  RH  043%=      5-min Rain = 0
KAI1 040312Z 15006KT 28/14 A3009 RMK A01 T02750139  RH  043%=      5-min Rain = 0
KAI1 040313Z 14006KT 28/14 A3009 RMK A01 T02750139  RH  043%=      5-min Rain = 0
KAI1 040314Z 15007KT 28/14 A3009 RMK A01 T02760138  RH  043%=      5-min Rain = 0
KAI1 040315Z 15007KT 28/14 A3009 RMK A01 T02760138  RH  043%=      5-min Rain = 0
KAI1 040316Z 15006KT 28/14 A3009 RMK A01 T02770138  RH  042%=      5-min Rain = 0
KAI1 040317Z 15006KT 28/14 A3009 RMK A01 T02780138  RH  042%=      5-min Rain = 0
KAI1 040318Z 15006KT 28/14 A3009 RMK A01 T02790139  RH  042%=      5-min Rain = 0
KAI1 040319Z 15006KT 28/14 A3009 RMK A01 T02790138  RH  042%=      5-min Rain = 0
KAI1 040320Z 15007KT 28/14 A3009 RMK A01 T02800139  RH  042%=      5-min Rain = 0
KAI1 040321Z 14007KT 28/14 A3009 RMK A01 T02800138  RH  042%=      5-min Rain = 0
KAI1 040322Z 14007KT 28/14 A3009 RMK A01 T02800139  RH  042%=      5-min Rain = 0
KAI1 040323Z 14006KT 28/14 A3009 RMK A01 T02810139  RH  042%=      5-min Rain = 0
KAI1 040324Z 14007KT 28/14 A3009 RMK A01 T02810139  RH  042%=      5-min Rain = 0
KAI1 040325Z 14007KT 28/14 A3009 RMK A01 T02810139  RH  042%=      5-min Rain = 0
KAI1 040326Z 14007KT 28/14 A3009 RMK A01 T02810139  RH  042%=      5-min Rain = 0
KAI1 040327Z 14006KT 28/14 A3009 RMK A01 T02810140  RH  042%=      5-min Rain = 0
KAI1 040328Z 14006KT 28/14 A3009 RMK A01 T02800140  RH  042%=      5-min Rain = 0
KAI1 040329Z 14007KT 28/14 A3009 RMK A01 T02800140  RH  042%=      5-min Rain = 0
KAI1 040330Z 14006KT 28/14 A3009 RMK A01 T02800140  RH  042%=      5-min Rain = 0
KAI1 040331Z 14006KT 28/14 A3009 RMK A01 T02800140  RH  042%=      5-min Rain = 0
KAI1 040332Z 14006KT 28/14 A301 RMK A01 T02790140  RH  043%=      5-min Rain = 0
KAI1 040333Z 14006KT 28/14 A301 RMK A01 T02790140  RH  043%=      5-min Rain = 0
KAI1 040334Z 14006KT 28/14 A301 RMK A01 T02780141  RH  043%=      5-min Rain = 0
KAI1 040335Z 14006KT 28/14 A301 RMK A01 T02780140  RH  043%=      5-min Rain = 0
KAI1 040336Z 14006KT 28/14 A301 RMK A01 T02780141  RH  043%=      5-min Rain = 0
KAI1 040337Z 14006KT 28/14 A301 RMK A01 T02770141  RH  043%=      5-min Rain = 0
KAI1 040338Z 14006KT 28/14 A301 RMK A01 T02770141  RH  043%=      5-min Rain = 0
KAI1 040339Z 14006KT 28/14 A301 RMK A01 T02760141  RH  043%=      5-min Rain = 0
KAI1 040340Z 15007KT 28/14 A301 RMK A01 T02760141  RH  043%=      5-min Rain = 0
KAI1 040341Z 15007KT 28/14 A301 RMK A01 T02750141  RH  044%=      5-min Rain = 0
KAI1 040342Z 15007KT 28/14 A301 RMK A01 T02750141  RH  044%=      5-min Rain = 0
KAI1 040343Z 15007KT 28/14 A301 RMK A01 T02750141  RH  044%=      5-min Rain = 0
KAI1 040344Z 15006KT 28/14 A301 RMK A01 T02750141  RH  044%=      5-min Rain = 0
KAI1 040345Z 15007KT 27/14 A301 RMK A01 T02740141  RH  044%=      5-min Rain = 0
KAI1 040346Z 15007KT 27/14 A301 RMK A01 T02740141  RH  044%=      5-min Rain = 0
KAI1 040347Z 15007KT 27/14 A301 RMK A01 T02740141  RH  044%=      5-min Rain = 0
KAI1 040348Z 15008KT 27/14 A301 RMK A01 T02740141  RH  044%=      5-min Rain = 0
KAI1 040349Z 15007KT 28/14 A301 RMK A01 T02750141  RH  044%=      5-min Rain = 0
KAI1 040350Z 15007KT 28/14 A301 RMK A01 T02750142  RH  044%=      5-min Rain = 0
KAI1 040351Z 14008KT 28/14 A301 RMK A01 T02750142  RH  044%=      5-min Rain = 0
KAI1 040352Z 14008KT 28/14 A301 RMK A01 T02750142  RH  044%=      5-min Rain = 0
KAI1 040353Z 15008KT 28/14 A301 RMK A01 T02750142  RH  044%=      5-min Rain = 0
KAI1 040354Z 14007KT 28/14 A301 RMK A01 T02760142  RH  044%=      5-min Rain = 0
KAI1 040355Z 14007KT 28/14 A301 RMK A01 T02760142  RH  044%=      5-min Rain = 0
KAI1 040356Z 14007KT 28/14 A301 RMK A01 T02760142  RH  044%=      5-min Rain = 0
KAI1 040357Z 14007KT 28/14 A301 RMK A01 T02760143  RH  044%=      5-min Rain = 0
KAI1 040358Z 14006KT 28/14 A301 RMK A01 T02760142  RH  044%=      5-min Rain = 0
KAI1 040359Z 14007KT 28/14 A301 RMK A01 T02760143  RH  044%=      5-min Rain = 0
KAI1 040400Z 15006KT 28/14 A301 RMK A01 T02760143  RH  044%=      5-min Rain = 0
KAI1 040401Z 15006KT 28/14 A301 RMK A01 T02750142  RH  044%=      5-min Rain = 0
KAI1 040402Z 15006KT 28/14 A301 RMK A01 T02750143  RH  044%=      5-min Rain = 0
KAI1 040403Z 15006KT 27/14 A301 RMK A01 T02740143  RH  044%=      5-min Rain = 0
KAI1 040404Z 15006KT 27/14 A301 RMK A01 T02740143  RH  045%=      5-min Rain = 0
KAI1 040405Z 15006KT 27/14 A301 RMK A01 T02730142  RH  045%=      5-min Rain = 0
KAI1 040406Z 15006KT 27/14 A301 RMK A01 T02730142  RH  045%=      5-min Rain = 0
KAI1 040407Z 15006KT 27/14 A301 RMK A01 T02720143  RH  045%=      5-min Rain = 0
KAI1 040408Z 15006KT 27/14 A301 RMK A01 T02720143  RH  045%=      5-min Rain = 0
KAI1 040409Z 16005KT 27/14 A301 RMK A01 T02720143  RH  045%=      5-min Rain = 0
KAI1 040410Z 16005KT 27/14 A301 RMK A01 T02720143  RH  045%=      5-min Rain = 0
KAI1 040411Z 16005KT 27/14 A301 RMK A01 T02710143  RH  045%=      5-min Rain = 0
KAI1 040412Z 16006KT 27/14 A301 RMK A01 T02720143  RH  045%=      5-min Rain = 0
KAI1 040413Z 16006KT 27/14 A301 RMK A01 T02710144  RH  045%=      5-min Rain = 0
KAI1 040414Z 16006KT 27/14 A301 RMK A01 T02710144  RH  046%=      5-min Rain = 0
KAI1 040415Z 16007KT 27/14 A301 RMK A01 T02710144  RH  046%=      5-min Rain = 0
KAI1 040416Z 16006KT 27/14 A301 RMK A01 T02720144  RH  045%=      5-min Rain = 0
KAI1 040417Z 16006KT 27/14 A301 RMK A01 T02720144  RH  045%=      5-min Rain = 0
KAI1 040418Z 16007KT 27/14 A301 RMK A01 T02720144  RH  045%=      5-min Rain = 0
KAI1 040419Z 16007KT 27/14 A301 RMK A01 T02720144  RH  046%=      5-min Rain = 0
KAI1 040420Z 16006KT 27/14 A301 RMK A01 T02720144  RH  046%=      5-min Rain = 0
KAI1 040421Z 16007KT 27/14 A301 RMK A01 T02720144  RH  046%=      5-min Rain = 0
KAI1 040422Z 15006KT 27/14 A301 RMK A01 T02710144  RH  046%=      5-min Rain = 0
KAI1 040423Z 15006KT 27/14 A301 RMK A01 T02710144  RH  046%=      5-min Rain = 0
KAI1 040424Z 16007KT 27/14 A301 RMK A01 T02710144  RH  046%=      5-min Rain = 0
KAI1 040425Z 15007KT 27/15 A301 RMK A01 T02700145  RH  046%=      5-min Rain = 0
KAI1 040426Z 15007KT 27/15 A301 RMK A01 T02700145  RH  046%=      5-min Rain = 0
KAI1 040427Z 15007KT 27/15 A301 RMK A01 T02700145  RH  046%=      5-min Rain = 0
KAI1 040428Z 16007KT 27/14 A301 RMK A01 T02700144  RH  046%=      5-min Rain = 0
KAI1 040429Z 16007KT 27/14 A301 RMK A01 T02700144  RH  046%=      5-min Rain = 0
KAI1 040430Z 15006KT 27/14 A301 RMK A01 T02700144  RH  046%=      5-min Rain = 0
KAI1 040431Z 16005KT 27/14 A3011 RMK A01 T02700144  RH  046%=      5-min Rain = 0
KAI1 040432Z 16006KT 27/14 A3011 RMK A01 T02690144  RH  046%=      5-min Rain = 0
KAI1 040433Z 15006KT 27/14 A3011 RMK A01 T02690144  RH  046%=      5-min Rain = 0
KAI1 040434Z 16006KT 27/14 A3011 RMK A01 T02690144  RH  046%=      5-min Rain = 0
KAI1 040435Z 16006KT 27/14 A3011 RMK A01 T02690144  RH  046%=      5-min Rain = 0
KAI1 040436Z 15006KT 27/14 A3011 RMK A01 T02690144  RH  046%=      5-min Rain = 0
KAI1 040437Z 15006KT 27/14 A3011 RMK A01 T02680144  RH  046%=      5-min Rain = 0
KAI1 040438Z 15006KT 27/14 A3011 RMK A01 T02680144  RH  046%=      5-min Rain = 0
KAI1 040439Z 15006KT 27/14 A3011 RMK A01 T02680143  RH  046%=      5-min Rain = 0
KAI1 040440Z 15006KT 27/14 A3011 RMK A01 T02680143  RH  046%=      5-min Rain = 0
KAI1 040441Z 15006KT 27/14 A3011 RMK A01 T02670143  RH  046%=      5-min Rain = 0
KAI1 040442Z 15006KT 27/14 A3011 RMK A01 T02670143  RH  046%=      5-min Rain = 0
KAI1 040443Z 15006KT 27/14 A3011 RMK A01 T02670143  RH  046%=      5-min Rain = 0
KAI1 040444Z 15006KT 27/14 A3011 RMK A01 T02670143  RH  046%=      5-min Rain = 0
KAI1 040445Z 15006KT 27/14 A3011 RMK A01 T02670142  RH  046%=      5-min Rain = 0
KAI1 040446Z 15006KT 27/14 A3011 RMK A01 T02660142  RH  046%=      5-min Rain = 0
KAI1 040447Z 15006KT 27/14 A3011 RMK A01 T02660142  RH  046%=      5-min Rain = 0
KAI1 040448Z 15006KT 27/14 A301 RMK A01 T02660142  RH  046%=      5-min Rain = 0
KAI1 040449Z 15007KT 27/14 A301 RMK A01 T02660141  RH  046%=      5-min Rain = 0
KAI1 040450Z 15007KT 27/14 A301 RMK A01 T02660141  RH  046%=      5-min Rain = 0
KAI1 040451Z 15007KT 27/14 A301 RMK A01 T02650141  RH  046%=      5-min Rain = 0
KAI1 040452Z 15006KT 27/14 A301 RMK A01 T02650141  RH  046%=      5-min Rain = 0
KAI1 040453Z 16006KT 27/14 A301 RMK A01 T02650141  RH  046%=      5-min Rain = 0
KAI1 040454Z 15007KT 27/14 A301 RMK A01 T02650141  RH  046%=      5-min Rain = 0
KAI1 040455Z 15006KT 27/14 A301 RMK A01 T02650141  RH  046%=      5-min Rain = 0
KAI1 040456Z 15007KT 27/14 A301 RMK A01 T02650141  RH  047%=      5-min Rain = 0
KAI1 040457Z 15007KT 26/14 A301 RMK A01 T02640141  RH  047%=      5-min Rain = 0
KAI1 040458Z 15007KT 27/14 A301 RMK A01 T02650142  RH  047%=      5-min Rain = 0
KAI1 040459Z 16006KT 27/14 A301 RMK A01 T02650142  RH  047%=      5-min Rain = 0

Page generated in 0.0777 seconds.